<?xml version="1.0" encoding="UTF-8" standalone="no" ?>
<gpx xmlns="http://www.topografix.com/GPX/1/1" xmlns:xsi="http://www.w3.org/2001/XMLSchema-instance" xsi:schemaLocation="http://www.topografix.com/GPX/1/1 http://www.topografix.com/GPX/1/1/gpx.xsd" version="1.1" creator="VisuGPX - https://www.visugpx.com">
  <metadata>
    <name>les Monges 2019</name>
    <desc><![CDATA[A partir du parking du lac d'Esparron la Batie , direction le lac , chemin et sentier en forêt en direction du sommets de Costebelle et des Monges, vu à 360° des Ecrins au Ventoux.  puis les cols de la Croix de Veyre et Clapouse. Retour par le lac.]]></desc>
  </metadata>
  <trk>
    <name><![CDATA[les Monges 2019]]></name>
    <trkseg>
      <trkpt lat="44.28564" lon="6.1821">
        <ele>1545.28</ele>
        <time>2019-08-15T07:02:31Z</time>
      </trkpt>
      <trkpt lat="44.28564" lon="6.1821">
        <ele>1545.28</ele>
        <time>2019-08-15T07:02:32Z</time>
      </trkpt>
      <trkpt lat="44.2857" lon="6.18201">
        <ele>1544.08</ele>
        <time>2019-08-15T07:03:03Z</time>
      </trkpt>
      <trkpt lat="44.28574" lon="6.18202">
        <ele>1544.95</ele>
        <time>2019-08-15T07:03:16Z</time>
      </trkpt>
      <trkpt lat="44.28577" lon="6.18203">
        <ele>1544.5</ele>
        <time>2019-08-15T07:03:33Z</time>
      </trkpt>
      <trkpt lat="44.28576" lon="6.18203">
        <ele>1544.92</ele>
        <time>2019-08-15T07:03:53Z</time>
      </trkpt>
      <trkpt lat="44.28575" lon="6.182">
        <ele>1545.12</ele>
        <time>2019-08-15T07:03:55Z</time>
      </trkpt>
      <trkpt lat="44.28575" lon="6.18195">
        <ele>1545.43</ele>
        <time>2019-08-15T07:03:59Z</time>
      </trkpt>
      <trkpt lat="44.28573" lon="6.18187">
        <ele>1545.36</ele>
        <time>2019-08-15T07:04:16Z</time>
      </trkpt>
      <trkpt lat="44.28572" lon="6.18187">
        <ele>1545.43</ele>
        <time>2019-08-15T07:04:42Z</time>
      </trkpt>
      <trkpt lat="44.28571" lon="6.18186">
        <ele>1545.44</ele>
        <time>2019-08-15T07:05:02Z</time>
      </trkpt>
      <trkpt lat="44.28571" lon="6.18185">
        <ele>1545.46</ele>
        <time>2019-08-15T07:05:24Z</time>
      </trkpt>
      <trkpt lat="44.28572" lon="6.18186">
        <ele>1545.35</ele>
        <time>2019-08-15T07:05:45Z</time>
      </trkpt>
      <trkpt lat="44.28571" lon="6.18186">
        <ele>1545.51</ele>
        <time>2019-08-15T07:06:06Z</time>
      </trkpt>
      <trkpt lat="44.28571" lon="6.18187">
        <ele>1545.71</ele>
        <time>2019-08-15T07:06:28Z</time>
      </trkpt>
      <trkpt lat="44.2857" lon="6.18189">
        <ele>1545.83</ele>
        <time>2019-08-15T07:06:51Z</time>
      </trkpt>
      <trkpt lat="44.28565" lon="6.18195">
        <ele>1546.44</ele>
        <time>2019-08-15T07:07:07Z</time>
      </trkpt>
      <trkpt lat="44.28555" lon="6.18199">
        <ele>1546.76</ele>
        <time>2019-08-15T07:07:25Z</time>
      </trkpt>
      <trkpt lat="44.28545" lon="6.182">
        <ele>1547.56</ele>
        <time>2019-08-15T07:07:40Z</time>
      </trkpt>
      <trkpt lat="44.28532" lon="6.18199">
        <ele>1547.87</ele>
        <time>2019-08-15T07:07:59Z</time>
      </trkpt>
      <trkpt lat="44.28522" lon="6.182">
        <ele>1548.35</ele>
        <time>2019-08-15T07:08:14Z</time>
      </trkpt>
      <trkpt lat="44.28506" lon="6.18202">
        <ele>1549.43</ele>
        <time>2019-08-15T07:08:32Z</time>
      </trkpt>
      <trkpt lat="44.2849" lon="6.18205">
        <ele>1550.32</ele>
        <time>2019-08-15T07:08:47Z</time>
      </trkpt>
      <trkpt lat="44.28469" lon="6.18208">
        <ele>1551.14</ele>
        <time>2019-08-15T07:09:06Z</time>
      </trkpt>
      <trkpt lat="44.28455" lon="6.18208">
        <ele>1551.61</ele>
        <time>2019-08-15T07:09:22Z</time>
      </trkpt>
      <trkpt lat="44.28438" lon="6.18212">
        <ele>1552.14</ele>
        <time>2019-08-15T07:09:38Z</time>
      </trkpt>
      <trkpt lat="44.28419" lon="6.18214">
        <ele>1552.68</ele>
        <time>2019-08-15T07:09:57Z</time>
      </trkpt>
      <trkpt lat="44.28402" lon="6.18216">
        <ele>1552.68</ele>
        <time>2019-08-15T07:10:13Z</time>
      </trkpt>
      <trkpt lat="44.28387" lon="6.18217">
        <ele>1552.51</ele>
        <time>2019-08-15T07:10:27Z</time>
      </trkpt>
      <trkpt lat="44.28373" lon="6.18216">
        <ele>1552.4</ele>
        <time>2019-08-15T07:10:40Z</time>
      </trkpt>
      <trkpt lat="44.28368" lon="6.18215">
        <ele>1552.13</ele>
        <time>2019-08-15T07:10:45Z</time>
      </trkpt>
      <trkpt lat="44.28365" lon="6.18214">
        <ele>1551.96</ele>
        <time>2019-08-15T07:10:48Z</time>
      </trkpt>
      <trkpt lat="44.28359" lon="6.18213">
        <ele>1551.76</ele>
        <time>2019-08-15T07:10:53Z</time>
      </trkpt>
      <trkpt lat="44.28347" lon="6.18209">
        <ele>1551.21</ele>
        <time>2019-08-15T07:11:05Z</time>
      </trkpt>
      <trkpt lat="44.28326" lon="6.1821">
        <ele>1550.65</ele>
        <time>2019-08-15T07:11:22Z</time>
      </trkpt>
      <trkpt lat="44.28324" lon="6.18209">
        <ele>1550.62</ele>
        <time>2019-08-15T07:11:25Z</time>
      </trkpt>
      <trkpt lat="44.28316" lon="6.18206">
        <ele>1550.39</ele>
        <time>2019-08-15T07:11:33Z</time>
      </trkpt>
      <trkpt lat="44.28303" lon="6.18202">
        <ele>1549.61</ele>
        <time>2019-08-15T07:11:46Z</time>
      </trkpt>
      <trkpt lat="44.28287" lon="6.18202">
        <ele>1549.33</ele>
        <time>2019-08-15T07:12:01Z</time>
      </trkpt>
      <trkpt lat="44.28268" lon="6.18204">
        <ele>1548.91</ele>
        <time>2019-08-15T07:12:18Z</time>
      </trkpt>
      <trkpt lat="44.2825" lon="6.18196">
        <ele>1547.91</ele>
        <time>2019-08-15T07:12:36Z</time>
      </trkpt>
      <trkpt lat="44.28239" lon="6.18178">
        <ele>1547.77</ele>
        <time>2019-08-15T07:12:52Z</time>
      </trkpt>
      <trkpt lat="44.2823" lon="6.18158">
        <ele>1548.05</ele>
        <time>2019-08-15T07:13:10Z</time>
      </trkpt>
      <trkpt lat="44.28227" lon="6.1815">
        <ele>1548.14</ele>
        <time>2019-08-15T07:13:16Z</time>
      </trkpt>
      <trkpt lat="44.28222" lon="6.18138">
        <ele>1548.26</ele>
        <time>2019-08-15T07:13:26Z</time>
      </trkpt>
      <trkpt lat="44.28221" lon="6.18136">
        <ele>1548.26</ele>
        <time>2019-08-15T07:13:28Z</time>
      </trkpt>
      <trkpt lat="44.28218" lon="6.18123">
        <ele>1548.2</ele>
        <time>2019-08-15T07:13:38Z</time>
      </trkpt>
      <trkpt lat="44.28217" lon="6.18101">
        <ele>1548.64</ele>
        <time>2019-08-15T07:13:54Z</time>
      </trkpt>
      <trkpt lat="44.28216" lon="6.18085">
        <ele>1548.88</ele>
        <time>2019-08-15T07:14:06Z</time>
      </trkpt>
      <trkpt lat="44.28217" lon="6.18071">
        <ele>1549.29</ele>
        <time>2019-08-15T07:14:17Z</time>
      </trkpt>
      <trkpt lat="44.28217" lon="6.1805">
        <ele>1549.84</ele>
        <time>2019-08-15T07:14:34Z</time>
      </trkpt>
      <trkpt lat="44.28215" lon="6.18027">
        <ele>1549.81</ele>
        <time>2019-08-15T07:14:51Z</time>
      </trkpt>
      <trkpt lat="44.28211" lon="6.17993">
        <ele>1550.51</ele>
        <time>2019-08-15T07:15:16Z</time>
      </trkpt>
      <trkpt lat="44.2821" lon="6.17959">
        <ele>1550.49</ele>
        <time>2019-08-15T07:15:38Z</time>
      </trkpt>
      <trkpt lat="44.28206" lon="6.17943">
        <ele>1550.6</ele>
        <time>2019-08-15T07:15:55Z</time>
      </trkpt>
      <trkpt lat="44.28206" lon="6.17939">
        <ele>1550.82</ele>
        <time>2019-08-15T07:16:11Z</time>
      </trkpt>
      <trkpt lat="44.28206" lon="6.17933">
        <ele>1551.01</ele>
        <time>2019-08-15T07:16:29Z</time>
      </trkpt>
      <trkpt lat="44.28196" lon="6.17916">
        <ele>1551.39</ele>
        <time>2019-08-15T07:16:47Z</time>
      </trkpt>
      <trkpt lat="44.28194" lon="6.17914">
        <ele>1551.36</ele>
        <time>2019-08-15T07:16:50Z</time>
      </trkpt>
      <trkpt lat="44.28178" lon="6.17898">
        <ele>1551.1</ele>
        <time>2019-08-15T07:17:07Z</time>
      </trkpt>
      <trkpt lat="44.28175" lon="6.17895">
        <ele>1551.31</ele>
        <time>2019-08-15T07:17:24Z</time>
      </trkpt>
      <trkpt lat="44.28175" lon="6.17896">
        <ele>1551.44</ele>
        <time>2019-08-15T07:17:48Z</time>
      </trkpt>
      <trkpt lat="44.28175" lon="6.17898">
        <ele>1551.61</ele>
        <time>2019-08-15T07:18:19Z</time>
      </trkpt>
      <trkpt lat="44.28175" lon="6.17898">
        <ele>1551.42</ele>
        <time>2019-08-15T07:18:40Z</time>
      </trkpt>
      <trkpt lat="44.28176" lon="6.17897">
        <ele>1551.65</ele>
        <time>2019-08-15T07:19:08Z</time>
      </trkpt>
      <trkpt lat="44.28174" lon="6.179">
        <ele>1551.75</ele>
        <time>2019-08-15T07:19:26Z</time>
      </trkpt>
      <trkpt lat="44.28164" lon="6.17909">
        <ele>1551.34</ele>
        <time>2019-08-15T07:19:41Z</time>
      </trkpt>
      <trkpt lat="44.28158" lon="6.17912">
        <ele>1550.97</ele>
        <time>2019-08-15T07:19:56Z</time>
      </trkpt>
      <trkpt lat="44.28149" lon="6.17919">
        <ele>1550.79</ele>
        <time>2019-08-15T07:20:13Z</time>
      </trkpt>
      <trkpt lat="44.2814" lon="6.17934">
        <ele>1550.64</ele>
        <time>2019-08-15T07:20:31Z</time>
      </trkpt>
      <trkpt lat="44.28134" lon="6.1796">
        <ele>1550.21</ele>
        <time>2019-08-15T07:20:50Z</time>
      </trkpt>
      <trkpt lat="44.28126" lon="6.17972">
        <ele>1550.18</ele>
        <time>2019-08-15T07:21:05Z</time>
      </trkpt>
      <trkpt lat="44.28119" lon="6.1799">
        <ele>1549.59</ele>
        <time>2019-08-15T07:21:24Z</time>
      </trkpt>
      <trkpt lat="44.2811" lon="6.18013">
        <ele>1549.32</ele>
        <time>2019-08-15T07:21:40Z</time>
      </trkpt>
      <trkpt lat="44.28106" lon="6.18026">
        <ele>1548.47</ele>
        <time>2019-08-15T07:21:55Z</time>
      </trkpt>
      <trkpt lat="44.28101" lon="6.1804">
        <ele>1548.38</ele>
        <time>2019-08-15T07:22:10Z</time>
      </trkpt>
      <trkpt lat="44.28097" lon="6.18058">
        <ele>1548.09</ele>
        <time>2019-08-15T07:22:22Z</time>
      </trkpt>
      <trkpt lat="44.28098" lon="6.18078">
        <ele>1548.15</ele>
        <time>2019-08-15T07:22:38Z</time>
      </trkpt>
      <trkpt lat="44.28094" lon="6.18106">
        <ele>1548.52</ele>
        <time>2019-08-15T07:23:00Z</time>
      </trkpt>
      <trkpt lat="44.28096" lon="6.18123">
        <ele>1548.57</ele>
        <time>2019-08-15T07:23:22Z</time>
      </trkpt>
      <trkpt lat="44.28091" lon="6.18137">
        <ele>1549.14</ele>
        <time>2019-08-15T07:23:45Z</time>
      </trkpt>
      <trkpt lat="44.28087" lon="6.18153">
        <ele>1550.29</ele>
        <time>2019-08-15T07:24:06Z</time>
      </trkpt>
      <trkpt lat="44.28094" lon="6.18188">
        <ele>1550.41</ele>
        <time>2019-08-15T07:24:29Z</time>
      </trkpt>
      <trkpt lat="44.28104" lon="6.18218">
        <ele>1550.85</ele>
        <time>2019-08-15T07:24:51Z</time>
      </trkpt>
      <trkpt lat="44.28112" lon="6.18236">
        <ele>1550.27</ele>
        <time>2019-08-15T07:25:12Z</time>
      </trkpt>
      <trkpt lat="44.28132" lon="6.18246">
        <ele>1550.46</ele>
        <time>2019-08-15T07:25:34Z</time>
      </trkpt>
      <trkpt lat="44.28149" lon="6.18255">
        <ele>1551.19</ele>
        <time>2019-08-15T07:25:54Z</time>
      </trkpt>
      <trkpt lat="44.28162" lon="6.18269">
        <ele>1553.37</ele>
        <time>2019-08-15T07:26:13Z</time>
      </trkpt>
      <trkpt lat="44.28171" lon="6.18278">
        <ele>1554.27</ele>
        <time>2019-08-15T07:26:33Z</time>
      </trkpt>
      <trkpt lat="44.28183" lon="6.18296">
        <ele>1555.12</ele>
        <time>2019-08-15T07:26:52Z</time>
      </trkpt>
      <trkpt lat="44.28174" lon="6.18306">
        <ele>1555.87</ele>
        <time>2019-08-15T07:27:11Z</time>
      </trkpt>
      <trkpt lat="44.28157" lon="6.18308">
        <ele>1557.35</ele>
        <time>2019-08-15T07:27:34Z</time>
      </trkpt>
      <trkpt lat="44.28143" lon="6.1831">
        <ele>1558.63</ele>
        <time>2019-08-15T07:27:50Z</time>
      </trkpt>
      <trkpt lat="44.28126" lon="6.18314">
        <ele>1560.28</ele>
        <time>2019-08-15T07:28:08Z</time>
      </trkpt>
      <trkpt lat="44.28111" lon="6.18326">
        <ele>1561.37</ele>
        <time>2019-08-15T07:28:24Z</time>
      </trkpt>
      <trkpt lat="44.28101" lon="6.18337">
        <ele>1561.83</ele>
        <time>2019-08-15T07:28:36Z</time>
      </trkpt>
      <trkpt lat="44.28091" lon="6.1835">
        <ele>1562.7</ele>
        <time>2019-08-15T07:28:52Z</time>
      </trkpt>
      <trkpt lat="44.28083" lon="6.18364">
        <ele>1563.39</ele>
        <time>2019-08-15T07:29:06Z</time>
      </trkpt>
      <trkpt lat="44.28076" lon="6.18375">
        <ele>1563.84</ele>
        <time>2019-08-15T07:29:18Z</time>
      </trkpt>
      <trkpt lat="44.28076" lon="6.18397">
        <ele>1564.8</ele>
        <time>2019-08-15T07:29:36Z</time>
      </trkpt>
      <trkpt lat="44.28076" lon="6.18427">
        <ele>1566.51</ele>
        <time>2019-08-15T07:29:59Z</time>
      </trkpt>
      <trkpt lat="44.28069" lon="6.18459">
        <ele>1567.89</ele>
        <time>2019-08-15T07:30:19Z</time>
      </trkpt>
      <trkpt lat="44.28063" lon="6.18477">
        <ele>1568.66</ele>
        <time>2019-08-15T07:30:33Z</time>
      </trkpt>
      <trkpt lat="44.28056" lon="6.18494">
        <ele>1569.37</ele>
        <time>2019-08-15T07:30:48Z</time>
      </trkpt>
      <trkpt lat="44.2805" lon="6.1851">
        <ele>1569.85</ele>
        <time>2019-08-15T07:31:01Z</time>
      </trkpt>
      <trkpt lat="44.2804" lon="6.18524">
        <ele>1570.15</ele>
        <time>2019-08-15T07:31:16Z</time>
      </trkpt>
      <trkpt lat="44.28031" lon="6.18537">
        <ele>1570.29</ele>
        <time>2019-08-15T07:31:28Z</time>
      </trkpt>
      <trkpt lat="44.28025" lon="6.18554">
        <ele>1570.52</ele>
        <time>2019-08-15T07:31:41Z</time>
      </trkpt>
      <trkpt lat="44.28017" lon="6.18574">
        <ele>1570.49</ele>
        <time>2019-08-15T07:31:55Z</time>
      </trkpt>
      <trkpt lat="44.28011" lon="6.18582">
        <ele>1570.32</ele>
        <time>2019-08-15T07:32:02Z</time>
      </trkpt>
      <trkpt lat="44.28" lon="6.18598">
        <ele>1570.18</ele>
        <time>2019-08-15T07:32:17Z</time>
      </trkpt>
      <trkpt lat="44.27987" lon="6.1862">
        <ele>1569.8</ele>
        <time>2019-08-15T07:32:35Z</time>
      </trkpt>
      <trkpt lat="44.27974" lon="6.18632">
        <ele>1569.29</ele>
        <time>2019-08-15T07:32:50Z</time>
      </trkpt>
      <trkpt lat="44.27969" lon="6.18638">
        <ele>1569.11</ele>
        <time>2019-08-15T07:32:57Z</time>
      </trkpt>
      <trkpt lat="44.27968" lon="6.18647">
        <ele>1568.86</ele>
        <time>2019-08-15T07:33:03Z</time>
      </trkpt>
      <trkpt lat="44.27973" lon="6.18661">
        <ele>1568.8</ele>
        <time>2019-08-15T07:33:15Z</time>
      </trkpt>
      <trkpt lat="44.27994" lon="6.18664">
        <ele>1569.69</ele>
        <time>2019-08-15T07:33:33Z</time>
      </trkpt>
      <trkpt lat="44.28015" lon="6.18662">
        <ele>1570.98</ele>
        <time>2019-08-15T07:33:52Z</time>
      </trkpt>
      <trkpt lat="44.28035" lon="6.18659">
        <ele>1571.77</ele>
        <time>2019-08-15T07:34:11Z</time>
      </trkpt>
      <trkpt lat="44.28049" lon="6.18655">
        <ele>1572.36</ele>
        <time>2019-08-15T07:34:27Z</time>
      </trkpt>
      <trkpt lat="44.28051" lon="6.18656">
        <ele>1572.47</ele>
        <time>2019-08-15T07:34:29Z</time>
      </trkpt>
      <trkpt lat="44.28053" lon="6.18657">
        <ele>1572.59</ele>
        <time>2019-08-15T07:34:31Z</time>
      </trkpt>
      <trkpt lat="44.28072" lon="6.18666">
        <ele>1573.07</ele>
        <time>2019-08-15T07:34:48Z</time>
      </trkpt>
      <trkpt lat="44.28078" lon="6.18675">
        <ele>1574.1</ele>
        <time>2019-08-15T07:35:03Z</time>
      </trkpt>
      <trkpt lat="44.28074" lon="6.18692">
        <ele>1577.18</ele>
        <time>2019-08-15T07:35:24Z</time>
      </trkpt>
      <trkpt lat="44.28075" lon="6.18704">
        <ele>1579.6</ele>
        <time>2019-08-15T07:35:45Z</time>
      </trkpt>
      <trkpt lat="44.28075" lon="6.18722">
        <ele>1582.6</ele>
        <time>2019-08-15T07:36:07Z</time>
      </trkpt>
      <trkpt lat="44.28076" lon="6.18735">
        <ele>1585.68</ele>
        <time>2019-08-15T07:36:24Z</time>
      </trkpt>
      <trkpt lat="44.28076" lon="6.1875">
        <ele>1588.78</ele>
        <time>2019-08-15T07:36:44Z</time>
      </trkpt>
      <trkpt lat="44.28073" lon="6.18765">
        <ele>1591.98</ele>
        <time>2019-08-15T07:37:05Z</time>
      </trkpt>
      <trkpt lat="44.2807" lon="6.18786">
        <ele>1594.35</ele>
        <time>2019-08-15T07:37:29Z</time>
      </trkpt>
      <trkpt lat="44.28065" lon="6.18808">
        <ele>1596.03</ele>
        <time>2019-08-15T07:37:50Z</time>
      </trkpt>
      <trkpt lat="44.28067" lon="6.1882">
        <ele>1597.39</ele>
        <time>2019-08-15T07:38:09Z</time>
      </trkpt>
      <trkpt lat="44.28063" lon="6.18822">
        <ele>1597.62</ele>
        <time>2019-08-15T07:38:30Z</time>
      </trkpt>
      <trkpt lat="44.28064" lon="6.1882">
        <ele>1598.14</ele>
        <time>2019-08-15T07:38:52Z</time>
      </trkpt>
      <trkpt lat="44.28064" lon="6.1882">
        <ele>1597.94</ele>
        <time>2019-08-15T07:39:13Z</time>
      </trkpt>
      <trkpt lat="44.28055" lon="6.18815">
        <ele>1597.86</ele>
        <time>2019-08-15T07:39:31Z</time>
      </trkpt>
      <trkpt lat="44.28048" lon="6.18801">
        <ele>1598.85</ele>
        <time>2019-08-15T07:39:49Z</time>
      </trkpt>
      <trkpt lat="44.28043" lon="6.18797">
        <ele>1599.47</ele>
        <time>2019-08-15T07:39:57Z</time>
      </trkpt>
      <trkpt lat="44.28031" lon="6.18799">
        <ele>1600.46</ele>
        <time>2019-08-15T07:40:10Z</time>
      </trkpt>
      <trkpt lat="44.28016" lon="6.18805">
        <ele>1601.7</ele>
        <time>2019-08-15T07:40:27Z</time>
      </trkpt>
      <trkpt lat="44.27998" lon="6.18813">
        <ele>1603.18</ele>
        <time>2019-08-15T07:40:47Z</time>
      </trkpt>
      <trkpt lat="44.27986" lon="6.18817">
        <ele>1604.37</ele>
        <time>2019-08-15T07:41:03Z</time>
      </trkpt>
      <trkpt lat="44.27971" lon="6.18825">
        <ele>1606.04</ele>
        <time>2019-08-15T07:41:23Z</time>
      </trkpt>
      <trkpt lat="44.27956" lon="6.18845">
        <ele>1608.52</ele>
        <time>2019-08-15T07:41:48Z</time>
      </trkpt>
      <trkpt lat="44.27946" lon="6.1886">
        <ele>1610.87</ele>
        <time>2019-08-15T07:42:05Z</time>
      </trkpt>
      <trkpt lat="44.27933" lon="6.18879">
        <ele>1612.98</ele>
        <time>2019-08-15T07:42:27Z</time>
      </trkpt>
      <trkpt lat="44.27917" lon="6.18898">
        <ele>1615.37</ele>
        <time>2019-08-15T07:42:53Z</time>
      </trkpt>
      <trkpt lat="44.27902" lon="6.18908">
        <ele>1617.17</ele>
        <time>2019-08-15T07:43:14Z</time>
      </trkpt>
      <trkpt lat="44.27885" lon="6.18921">
        <ele>1619.43</ele>
        <time>2019-08-15T07:43:38Z</time>
      </trkpt>
      <trkpt lat="44.27868" lon="6.1893">
        <ele>1621.55</ele>
        <time>2019-08-15T07:44:01Z</time>
      </trkpt>
      <trkpt lat="44.27855" lon="6.18929">
        <ele>1622.98</ele>
        <time>2019-08-15T07:44:17Z</time>
      </trkpt>
      <trkpt lat="44.27844" lon="6.18925">
        <ele>1624.58</ele>
        <time>2019-08-15T07:44:32Z</time>
      </trkpt>
      <trkpt lat="44.2783" lon="6.1893">
        <ele>1626.23</ele>
        <time>2019-08-15T07:44:48Z</time>
      </trkpt>
      <trkpt lat="44.27813" lon="6.18942">
        <ele>1628.38</ele>
        <time>2019-08-15T07:45:12Z</time>
      </trkpt>
      <trkpt lat="44.27798" lon="6.1896">
        <ele>1630.44</ele>
        <time>2019-08-15T07:45:35Z</time>
      </trkpt>
      <trkpt lat="44.2779" lon="6.18988">
        <ele>1632.23</ele>
        <time>2019-08-15T07:45:59Z</time>
      </trkpt>
      <trkpt lat="44.27793" lon="6.19013">
        <ele>1633.58</ele>
        <time>2019-08-15T07:46:18Z</time>
      </trkpt>
      <trkpt lat="44.27796" lon="6.19023">
        <ele>1633.76</ele>
        <time>2019-08-15T07:46:27Z</time>
      </trkpt>
      <trkpt lat="44.27805" lon="6.19052">
        <ele>1633.46</ele>
        <time>2019-08-15T07:46:48Z</time>
      </trkpt>
      <trkpt lat="44.27809" lon="6.19076">
        <ele>1633.93</ele>
        <time>2019-08-15T07:47:11Z</time>
      </trkpt>
      <trkpt lat="44.27807" lon="6.19094">
        <ele>1634.23</ele>
        <time>2019-08-15T07:47:23Z</time>
      </trkpt>
      <trkpt lat="44.27803" lon="6.19115">
        <ele>1634.71</ele>
        <time>2019-08-15T07:47:39Z</time>
      </trkpt>
      <trkpt lat="44.27799" lon="6.19143">
        <ele>1635.4</ele>
        <time>2019-08-15T07:47:58Z</time>
      </trkpt>
      <trkpt lat="44.27792" lon="6.19163">
        <ele>1635.8</ele>
        <time>2019-08-15T07:48:12Z</time>
      </trkpt>
      <trkpt lat="44.27784" lon="6.1918">
        <ele>1636.29</ele>
        <time>2019-08-15T07:48:28Z</time>
      </trkpt>
      <trkpt lat="44.27767" lon="6.19197">
        <ele>1637.37</ele>
        <time>2019-08-15T07:48:49Z</time>
      </trkpt>
      <trkpt lat="44.27754" lon="6.1921">
        <ele>1638.42</ele>
        <time>2019-08-15T07:49:07Z</time>
      </trkpt>
      <trkpt lat="44.27737" lon="6.19222">
        <ele>1640.13</ele>
        <time>2019-08-15T07:49:28Z</time>
      </trkpt>
      <trkpt lat="44.27722" lon="6.19211">
        <ele>1642.39</ele>
        <time>2019-08-15T07:49:50Z</time>
      </trkpt>
      <trkpt lat="44.27703" lon="6.19221">
        <ele>1644.31</ele>
        <time>2019-08-15T07:50:11Z</time>
      </trkpt>
      <trkpt lat="44.27692" lon="6.19239">
        <ele>1646.12</ele>
        <time>2019-08-15T07:50:33Z</time>
      </trkpt>
      <trkpt lat="44.27677" lon="6.19265">
        <ele>1647.92</ele>
        <time>2019-08-15T07:50:57Z</time>
      </trkpt>
      <trkpt lat="44.27661" lon="6.19262">
        <ele>1649.28</ele>
        <time>2019-08-15T07:51:18Z</time>
      </trkpt>
      <trkpt lat="44.27646" lon="6.19252">
        <ele>1651.37</ele>
        <time>2019-08-15T07:51:39Z</time>
      </trkpt>
      <trkpt lat="44.27634" lon="6.19231">
        <ele>1653.1</ele>
        <time>2019-08-15T07:51:59Z</time>
      </trkpt>
      <trkpt lat="44.27639" lon="6.19204">
        <ele>1654.91</ele>
        <time>2019-08-15T07:52:20Z</time>
      </trkpt>
      <trkpt lat="44.2764" lon="6.19175">
        <ele>1656.19</ele>
        <time>2019-08-15T07:52:42Z</time>
      </trkpt>
      <trkpt lat="44.27637" lon="6.19144">
        <ele>1657.36</ele>
        <time>2019-08-15T07:53:04Z</time>
      </trkpt>
      <trkpt lat="44.27635" lon="6.19118">
        <ele>1658.67</ele>
        <time>2019-08-15T07:53:28Z</time>
      </trkpt>
      <trkpt lat="44.27631" lon="6.19095">
        <ele>1659.93</ele>
        <time>2019-08-15T07:53:46Z</time>
      </trkpt>
      <trkpt lat="44.27635" lon="6.19068">
        <ele>1661.38</ele>
        <time>2019-08-15T07:54:06Z</time>
      </trkpt>
      <trkpt lat="44.27643" lon="6.19048">
        <ele>1663.11</ele>
        <time>2019-08-15T07:54:24Z</time>
      </trkpt>
      <trkpt lat="44.27652" lon="6.19032">
        <ele>1664.57</ele>
        <time>2019-08-15T07:54:40Z</time>
      </trkpt>
      <trkpt lat="44.27657" lon="6.19015">
        <ele>1665.62</ele>
        <time>2019-08-15T07:54:55Z</time>
      </trkpt>
      <trkpt lat="44.27662" lon="6.18992">
        <ele>1666.81</ele>
        <time>2019-08-15T07:55:17Z</time>
      </trkpt>
      <trkpt lat="44.27662" lon="6.18977">
        <ele>1667.71</ele>
        <time>2019-08-15T07:55:35Z</time>
      </trkpt>
      <trkpt lat="44.27665" lon="6.18969">
        <ele>1668.2</ele>
        <time>2019-08-15T07:55:57Z</time>
      </trkpt>
      <trkpt lat="44.27663" lon="6.18958">
        <ele>1668.7</ele>
        <time>2019-08-15T07:56:18Z</time>
      </trkpt>
      <trkpt lat="44.27654" lon="6.18942">
        <ele>1669.44</ele>
        <time>2019-08-15T07:56:39Z</time>
      </trkpt>
      <trkpt lat="44.27634" lon="6.18936">
        <ele>1670.87</ele>
        <time>2019-08-15T07:57:02Z</time>
      </trkpt>
      <trkpt lat="44.27617" lon="6.18939">
        <ele>1672.24</ele>
        <time>2019-08-15T07:57:23Z</time>
      </trkpt>
      <trkpt lat="44.27595" lon="6.18941">
        <ele>1673.71</ele>
        <time>2019-08-15T07:57:46Z</time>
      </trkpt>
      <trkpt lat="44.27585" lon="6.18943">
        <ele>1674.15</ele>
        <time>2019-08-15T07:57:57Z</time>
      </trkpt>
      <trkpt lat="44.27571" lon="6.18944">
        <ele>1674.94</ele>
        <time>2019-08-15T07:58:13Z</time>
      </trkpt>
      <trkpt lat="44.27555" lon="6.18944">
        <ele>1676.22</ele>
        <time>2019-08-15T07:58:31Z</time>
      </trkpt>
      <trkpt lat="44.27544" lon="6.18937">
        <ele>1677.34</ele>
        <time>2019-08-15T07:58:52Z</time>
      </trkpt>
      <trkpt lat="44.2754" lon="6.1892">
        <ele>1678.4</ele>
        <time>2019-08-15T07:59:10Z</time>
      </trkpt>
      <trkpt lat="44.27527" lon="6.18897">
        <ele>1679.27</ele>
        <time>2019-08-15T07:59:30Z</time>
      </trkpt>
      <trkpt lat="44.27523" lon="6.18885">
        <ele>1679.73</ele>
        <time>2019-08-15T07:59:37Z</time>
      </trkpt>
      <trkpt lat="44.27516" lon="6.18878">
        <ele>1680.12</ele>
        <time>2019-08-15T07:59:46Z</time>
      </trkpt>
      <trkpt lat="44.27498" lon="6.18882">
        <ele>1680.96</ele>
        <time>2019-08-15T08:00:03Z</time>
      </trkpt>
      <trkpt lat="44.27485" lon="6.18884">
        <ele>1682.37</ele>
        <time>2019-08-15T08:00:19Z</time>
      </trkpt>
      <trkpt lat="44.2747" lon="6.18885">
        <ele>1684.19</ele>
        <time>2019-08-15T08:00:39Z</time>
      </trkpt>
      <trkpt lat="44.27455" lon="6.18885">
        <ele>1686.02</ele>
        <time>2019-08-15T08:00:57Z</time>
      </trkpt>
      <trkpt lat="44.27447" lon="6.18873">
        <ele>1687.93</ele>
        <time>2019-08-15T08:01:14Z</time>
      </trkpt>
      <trkpt lat="44.27448" lon="6.18863">
        <ele>1688.43</ele>
        <time>2019-08-15T08:01:22Z</time>
      </trkpt>
      <trkpt lat="44.2745" lon="6.18855">
        <ele>1688.87</ele>
        <time>2019-08-15T08:01:29Z</time>
      </trkpt>
      <trkpt lat="44.27451" lon="6.18831">
        <ele>1689.49</ele>
        <time>2019-08-15T08:01:49Z</time>
      </trkpt>
      <trkpt lat="44.27436" lon="6.18826">
        <ele>1690.74</ele>
        <time>2019-08-15T08:02:08Z</time>
      </trkpt>
      <trkpt lat="44.27419" lon="6.18828">
        <ele>1691.93</ele>
        <time>2019-08-15T08:02:29Z</time>
      </trkpt>
      <trkpt lat="44.27401" lon="6.18829">
        <ele>1693.52</ele>
        <time>2019-08-15T08:02:49Z</time>
      </trkpt>
      <trkpt lat="44.27386" lon="6.18831">
        <ele>1694.97</ele>
        <time>2019-08-15T08:03:08Z</time>
      </trkpt>
      <trkpt lat="44.27371" lon="6.18833">
        <ele>1696.76</ele>
        <time>2019-08-15T08:03:26Z</time>
      </trkpt>
      <trkpt lat="44.27371" lon="6.18839">
        <ele>1698.06</ele>
        <time>2019-08-15T08:03:45Z</time>
      </trkpt>
      <trkpt lat="44.27375" lon="6.18841">
        <ele>1698.19</ele>
        <time>2019-08-15T08:04:13Z</time>
      </trkpt>
      <trkpt lat="44.27384" lon="6.18844">
        <ele>1699.13</ele>
        <time>2019-08-15T08:04:33Z</time>
      </trkpt>
      <trkpt lat="44.27387" lon="6.18845">
        <ele>1699.52</ele>
        <time>2019-08-15T08:04:37Z</time>
      </trkpt>
      <trkpt lat="44.27393" lon="6.18848">
        <ele>1700</ele>
        <time>2019-08-15T08:04:43Z</time>
      </trkpt>
      <trkpt lat="44.27392" lon="6.18861">
        <ele>1700.48</ele>
        <time>2019-08-15T08:04:59Z</time>
      </trkpt>
      <trkpt lat="44.2739" lon="6.18865">
        <ele>1700.34</ele>
        <time>2019-08-15T08:05:03Z</time>
      </trkpt>
      <trkpt lat="44.27386" lon="6.18888">
        <ele>1700.45</ele>
        <time>2019-08-15T08:05:22Z</time>
      </trkpt>
      <trkpt lat="44.27391" lon="6.18911">
        <ele>1701.89</ele>
        <time>2019-08-15T08:05:43Z</time>
      </trkpt>
      <trkpt lat="44.27393" lon="6.18932">
        <ele>1704.05</ele>
        <time>2019-08-15T08:06:03Z</time>
      </trkpt>
      <trkpt lat="44.27393" lon="6.18952">
        <ele>1703.51</ele>
        <time>2019-08-15T08:06:23Z</time>
      </trkpt>
      <trkpt lat="44.27391" lon="6.18969">
        <ele>1703.24</ele>
        <time>2019-08-15T08:06:43Z</time>
      </trkpt>
      <trkpt lat="44.27394" lon="6.1898">
        <ele>1704.51</ele>
        <time>2019-08-15T08:07:03Z</time>
      </trkpt>
      <trkpt lat="44.2741" lon="6.18992">
        <ele>1705.74</ele>
        <time>2019-08-15T08:07:25Z</time>
      </trkpt>
      <trkpt lat="44.27425" lon="6.19001">
        <ele>1707.92</ele>
        <time>2019-08-15T08:07:44Z</time>
      </trkpt>
      <trkpt lat="44.27437" lon="6.19006">
        <ele>1710.97</ele>
        <time>2019-08-15T08:08:06Z</time>
      </trkpt>
      <trkpt lat="44.27451" lon="6.1901">
        <ele>1713.98</ele>
        <time>2019-08-15T08:08:26Z</time>
      </trkpt>
      <trkpt lat="44.27466" lon="6.19014">
        <ele>1717.05</ele>
        <time>2019-08-15T08:08:47Z</time>
      </trkpt>
      <trkpt lat="44.2747" lon="6.19024">
        <ele>1719.81</ele>
        <time>2019-08-15T08:09:08Z</time>
      </trkpt>
      <trkpt lat="44.27466" lon="6.19035">
        <ele>1722.86</ele>
        <time>2019-08-15T08:09:29Z</time>
      </trkpt>
      <trkpt lat="44.27456" lon="6.19046">
        <ele>1725.3</ele>
        <time>2019-08-15T08:09:49Z</time>
      </trkpt>
      <trkpt lat="44.27446" lon="6.19062">
        <ele>1727.99</ele>
        <time>2019-08-15T08:10:10Z</time>
      </trkpt>
      <trkpt lat="44.2743" lon="6.19075">
        <ele>1729.93</ele>
        <time>2019-08-15T08:10:35Z</time>
      </trkpt>
      <trkpt lat="44.2742" lon="6.19086">
        <ele>1731.28</ele>
        <time>2019-08-15T08:10:54Z</time>
      </trkpt>
      <trkpt lat="44.27409" lon="6.19098">
        <ele>1733.11</ele>
        <time>2019-08-15T08:11:19Z</time>
      </trkpt>
      <trkpt lat="44.27397" lon="6.19104">
        <ele>1733.65</ele>
        <time>2019-08-15T08:11:39Z</time>
      </trkpt>
      <trkpt lat="44.27385" lon="6.1912">
        <ele>1735.98</ele>
        <time>2019-08-15T08:12:01Z</time>
      </trkpt>
      <trkpt lat="44.27378" lon="6.19143">
        <ele>1737.5</ele>
        <time>2019-08-15T08:12:20Z</time>
      </trkpt>
      <trkpt lat="44.27369" lon="6.19162">
        <ele>1738.19</ele>
        <time>2019-08-15T08:12:38Z</time>
      </trkpt>
      <trkpt lat="44.27364" lon="6.19177">
        <ele>1736.19</ele>
        <time>2019-08-15T08:12:58Z</time>
      </trkpt>
      <trkpt lat="44.27353" lon="6.19196">
        <ele>1736.66</ele>
        <time>2019-08-15T08:13:20Z</time>
      </trkpt>
      <trkpt lat="44.2735" lon="6.19216">
        <ele>1736.35</ele>
        <time>2019-08-15T08:13:43Z</time>
      </trkpt>
      <trkpt lat="44.27341" lon="6.19224">
        <ele>1738.63</ele>
        <time>2019-08-15T08:14:03Z</time>
      </trkpt>
      <trkpt lat="44.27332" lon="6.19245">
        <ele>1738.98</ele>
        <time>2019-08-15T08:14:24Z</time>
      </trkpt>
      <trkpt lat="44.27319" lon="6.19263">
        <ele>1740.09</ele>
        <time>2019-08-15T08:14:45Z</time>
      </trkpt>
      <trkpt lat="44.27309" lon="6.19276">
        <ele>1743.15</ele>
        <time>2019-08-15T08:15:07Z</time>
      </trkpt>
      <trkpt lat="44.27299" lon="6.19293">
        <ele>1746.26</ele>
        <time>2019-08-15T08:15:30Z</time>
      </trkpt>
      <trkpt lat="44.27291" lon="6.19319">
        <ele>1747.76</ele>
        <time>2019-08-15T08:15:53Z</time>
      </trkpt>
      <trkpt lat="44.2729" lon="6.19335">
        <ele>1748.5</ele>
        <time>2019-08-15T08:16:14Z</time>
      </trkpt>
      <trkpt lat="44.27281" lon="6.19346">
        <ele>1751.14</ele>
        <time>2019-08-15T08:16:35Z</time>
      </trkpt>
      <trkpt lat="44.27268" lon="6.19357">
        <ele>1754.39</ele>
        <time>2019-08-15T08:16:56Z</time>
      </trkpt>
      <trkpt lat="44.27257" lon="6.19371">
        <ele>1756.78</ele>
        <time>2019-08-15T08:17:17Z</time>
      </trkpt>
      <trkpt lat="44.27245" lon="6.19384">
        <ele>1759.36</ele>
        <time>2019-08-15T08:17:40Z</time>
      </trkpt>
      <trkpt lat="44.27235" lon="6.19398">
        <ele>1762.37</ele>
        <time>2019-08-15T08:18:00Z</time>
      </trkpt>
      <trkpt lat="44.27222" lon="6.1941">
        <ele>1764.97</ele>
        <time>2019-08-15T08:18:25Z</time>
      </trkpt>
      <trkpt lat="44.2721" lon="6.1942">
        <ele>1766.95</ele>
        <time>2019-08-15T08:18:49Z</time>
      </trkpt>
      <trkpt lat="44.27197" lon="6.19426">
        <ele>1768.34</ele>
        <time>2019-08-15T08:19:11Z</time>
      </trkpt>
      <trkpt lat="44.27181" lon="6.19435">
        <ele>1768.06</ele>
        <time>2019-08-15T08:19:32Z</time>
      </trkpt>
      <trkpt lat="44.27172" lon="6.19448">
        <ele>1769.12</ele>
        <time>2019-08-15T08:19:47Z</time>
      </trkpt>
      <trkpt lat="44.27163" lon="6.19462">
        <ele>1770.02</ele>
        <time>2019-08-15T08:20:07Z</time>
      </trkpt>
      <trkpt lat="44.2716" lon="6.19479">
        <ele>1773.03</ele>
        <time>2019-08-15T08:20:26Z</time>
      </trkpt>
      <trkpt lat="44.27168" lon="6.19495">
        <ele>1776.18</ele>
        <time>2019-08-15T08:20:45Z</time>
      </trkpt>
      <trkpt lat="44.27168" lon="6.19496">
        <ele>1776.33</ele>
        <time>2019-08-15T08:20:46Z</time>
      </trkpt>
      <trkpt lat="44.27174" lon="6.19507">
        <ele>1778.15</ele>
        <time>2019-08-15T08:20:58Z</time>
      </trkpt>
      <trkpt lat="44.27176" lon="6.19525">
        <ele>1780.37</ele>
        <time>2019-08-15T08:21:19Z</time>
      </trkpt>
      <trkpt lat="44.27173" lon="6.1954">
        <ele>1780.88</ele>
        <time>2019-08-15T08:21:35Z</time>
      </trkpt>
      <trkpt lat="44.27173" lon="6.19546">
        <ele>1780.39</ele>
        <time>2019-08-15T08:21:41Z</time>
      </trkpt>
      <trkpt lat="44.27171" lon="6.19557">
        <ele>1779.84</ele>
        <time>2019-08-15T08:21:52Z</time>
      </trkpt>
      <trkpt lat="44.27171" lon="6.19558">
        <ele>1779.86</ele>
        <time>2019-08-15T08:21:55Z</time>
      </trkpt>
      <trkpt lat="44.2717" lon="6.19572">
        <ele>1781.66</ele>
        <time>2019-08-15T08:22:15Z</time>
      </trkpt>
      <trkpt lat="44.27183" lon="6.19594">
        <ele>1783.82</ele>
        <time>2019-08-15T08:22:36Z</time>
      </trkpt>
      <trkpt lat="44.27194" lon="6.1961">
        <ele>1786.85</ele>
        <time>2019-08-15T08:22:57Z</time>
      </trkpt>
      <trkpt lat="44.27203" lon="6.19616">
        <ele>1788.27</ele>
        <time>2019-08-15T08:23:16Z</time>
      </trkpt>
      <trkpt lat="44.27214" lon="6.19624">
        <ele>1789.11</ele>
        <time>2019-08-15T08:23:34Z</time>
      </trkpt>
      <trkpt lat="44.27226" lon="6.19638">
        <ele>1789.35</ele>
        <time>2019-08-15T08:23:55Z</time>
      </trkpt>
      <trkpt lat="44.27235" lon="6.19644">
        <ele>1789.94</ele>
        <time>2019-08-15T08:24:13Z</time>
      </trkpt>
      <trkpt lat="44.27249" lon="6.19651">
        <ele>1792.36</ele>
        <time>2019-08-15T08:24:35Z</time>
      </trkpt>
      <trkpt lat="44.27261" lon="6.19668">
        <ele>1795.41</ele>
        <time>2019-08-15T08:24:57Z</time>
      </trkpt>
      <trkpt lat="44.27274" lon="6.19675">
        <ele>1798.09</ele>
        <time>2019-08-15T08:25:18Z</time>
      </trkpt>
      <trkpt lat="44.27278" lon="6.19692">
        <ele>1800.94</ele>
        <time>2019-08-15T08:25:42Z</time>
      </trkpt>
      <trkpt lat="44.27279" lon="6.19709">
        <ele>1803.87</ele>
        <time>2019-08-15T08:26:03Z</time>
      </trkpt>
      <trkpt lat="44.27274" lon="6.19727">
        <ele>1806.94</ele>
        <time>2019-08-15T08:26:24Z</time>
      </trkpt>
      <trkpt lat="44.27273" lon="6.19742">
        <ele>1809.66</ele>
        <time>2019-08-15T08:26:46Z</time>
      </trkpt>
      <trkpt lat="44.27267" lon="6.19755">
        <ele>1812.78</ele>
        <time>2019-08-15T08:27:07Z</time>
      </trkpt>
      <trkpt lat="44.27259" lon="6.19773">
        <ele>1815.16</ele>
        <time>2019-08-15T08:27:26Z</time>
      </trkpt>
      <trkpt lat="44.27252" lon="6.19795">
        <ele>1817.75</ele>
        <time>2019-08-15T08:27:50Z</time>
      </trkpt>
      <trkpt lat="44.27246" lon="6.1982">
        <ele>1820.41</ele>
        <time>2019-08-15T08:28:13Z</time>
      </trkpt>
      <trkpt lat="44.27244" lon="6.19842">
        <ele>1821.92</ele>
        <time>2019-08-15T08:28:34Z</time>
      </trkpt>
      <trkpt lat="44.27241" lon="6.1987">
        <ele>1824.43</ele>
        <time>2019-08-15T08:28:59Z</time>
      </trkpt>
      <trkpt lat="44.27242" lon="6.19901">
        <ele>1826.35</ele>
        <time>2019-08-15T08:29:21Z</time>
      </trkpt>
      <trkpt lat="44.27239" lon="6.19929">
        <ele>1827.74</ele>
        <time>2019-08-15T08:29:37Z</time>
      </trkpt>
      <trkpt lat="44.27227" lon="6.19939">
        <ele>1830.44</ele>
        <time>2019-08-15T08:29:59Z</time>
      </trkpt>
      <trkpt lat="44.27222" lon="6.19939">
        <ele>1830.82</ele>
        <time>2019-08-15T08:30:04Z</time>
      </trkpt>
      <trkpt lat="44.27197" lon="6.19938">
        <ele>1830.42</ele>
        <time>2019-08-15T08:30:24Z</time>
      </trkpt>
      <trkpt lat="44.272" lon="6.19946">
        <ele>1829.91</ele>
        <time>2019-08-15T08:30:42Z</time>
      </trkpt>
      <trkpt lat="44.27203" lon="6.19942">
        <ele>1830.16</ele>
        <time>2019-08-15T08:31:06Z</time>
      </trkpt>
      <trkpt lat="44.27208" lon="6.19942">
        <ele>1830.45</ele>
        <time>2019-08-15T08:31:27Z</time>
      </trkpt>
      <trkpt lat="44.27206" lon="6.19941">
        <ele>1829.72</ele>
        <time>2019-08-15T08:31:49Z</time>
      </trkpt>
      <trkpt lat="44.27203" lon="6.19941">
        <ele>1830.02</ele>
        <time>2019-08-15T08:32:12Z</time>
      </trkpt>
      <trkpt lat="44.27203" lon="6.19941">
        <ele>1830.1</ele>
        <time>2019-08-15T08:32:41Z</time>
      </trkpt>
      <trkpt lat="44.27204" lon="6.19938">
        <ele>1829.88</ele>
        <time>2019-08-15T08:33:10Z</time>
      </trkpt>
      <trkpt lat="44.27206" lon="6.19941">
        <ele>1829.26</ele>
        <time>2019-08-15T08:33:39Z</time>
      </trkpt>
      <trkpt lat="44.27208" lon="6.19942">
        <ele>1829.43</ele>
        <time>2019-08-15T08:34:21Z</time>
      </trkpt>
      <trkpt lat="44.27208" lon="6.1994">
        <ele>1829.89</ele>
        <time>2019-08-15T08:35:03Z</time>
      </trkpt>
      <trkpt lat="44.2721" lon="6.19938">
        <ele>1829.77</ele>
        <time>2019-08-15T08:35:32Z</time>
      </trkpt>
      <trkpt lat="44.27208" lon="6.19939">
        <ele>1829.22</ele>
        <time>2019-08-15T08:36:07Z</time>
      </trkpt>
      <trkpt lat="44.27207" lon="6.19944">
        <ele>1829.15</ele>
        <time>2019-08-15T08:36:37Z</time>
      </trkpt>
      <trkpt lat="44.27207" lon="6.19943">
        <ele>1828.94</ele>
        <time>2019-08-15T08:37:27Z</time>
      </trkpt>
      <trkpt lat="44.27208" lon="6.19942">
        <ele>1828.65</ele>
        <time>2019-08-15T08:38:02Z</time>
      </trkpt>
      <trkpt lat="44.27208" lon="6.19941">
        <ele>1828.45</ele>
        <time>2019-08-15T08:38:31Z</time>
      </trkpt>
      <trkpt lat="44.27209" lon="6.19943">
        <ele>1827.98</ele>
        <time>2019-08-15T08:39:00Z</time>
      </trkpt>
      <trkpt lat="44.2721" lon="6.19941">
        <ele>1827.81</ele>
        <time>2019-08-15T08:39:33Z</time>
      </trkpt>
      <trkpt lat="44.2721" lon="6.19944">
        <ele>1827.75</ele>
        <time>2019-08-15T08:40:03Z</time>
      </trkpt>
      <trkpt lat="44.27214" lon="6.19944">
        <ele>1827.65</ele>
        <time>2019-08-15T08:40:33Z</time>
      </trkpt>
      <trkpt lat="44.27213" lon="6.19943">
        <ele>1827.85</ele>
        <time>2019-08-15T08:41:07Z</time>
      </trkpt>
      <trkpt lat="44.27213" lon="6.19945">
        <ele>1827.93</ele>
        <time>2019-08-15T08:41:41Z</time>
      </trkpt>
      <trkpt lat="44.27214" lon="6.19942">
        <ele>1827.82</ele>
        <time>2019-08-15T08:42:09Z</time>
      </trkpt>
      <trkpt lat="44.2721" lon="6.19938">
        <ele>1828.92</ele>
        <time>2019-08-15T08:42:30Z</time>
      </trkpt>
      <trkpt lat="44.2721" lon="6.19929">
        <ele>1830.88</ele>
        <time>2019-08-15T08:42:50Z</time>
      </trkpt>
      <trkpt lat="44.27204" lon="6.19929">
        <ele>1830.27</ele>
        <time>2019-08-15T08:43:15Z</time>
      </trkpt>
      <trkpt lat="44.27204" lon="6.19926">
        <ele>1831.18</ele>
        <time>2019-08-15T08:43:38Z</time>
      </trkpt>
      <trkpt lat="44.27208" lon="6.19929">
        <ele>1831.32</ele>
        <time>2019-08-15T08:44:02Z</time>
      </trkpt>
      <trkpt lat="44.27202" lon="6.19918">
        <ele>1832.59</ele>
        <time>2019-08-15T08:44:21Z</time>
      </trkpt>
      <trkpt lat="44.27193" lon="6.19909">
        <ele>1834.68</ele>
        <time>2019-08-15T08:44:41Z</time>
      </trkpt>
      <trkpt lat="44.27191" lon="6.19906">
        <ele>1837.44</ele>
        <time>2019-08-15T08:45:00Z</time>
      </trkpt>
      <trkpt lat="44.27182" lon="6.19896">
        <ele>1840.55</ele>
        <time>2019-08-15T08:45:20Z</time>
      </trkpt>
      <trkpt lat="44.27165" lon="6.19885">
        <ele>1842.99</ele>
        <time>2019-08-15T08:45:41Z</time>
      </trkpt>
      <trkpt lat="44.27165" lon="6.19884">
        <ele>1843.48</ele>
        <time>2019-08-15T08:45:46Z</time>
      </trkpt>
      <trkpt lat="44.27152" lon="6.19871">
        <ele>1845.38</ele>
        <time>2019-08-15T08:46:04Z</time>
      </trkpt>
      <trkpt lat="44.27146" lon="6.19861">
        <ele>1847.45</ele>
        <time>2019-08-15T08:46:23Z</time>
      </trkpt>
      <trkpt lat="44.27132" lon="6.19846">
        <ele>1850.11</ele>
        <time>2019-08-15T08:46:44Z</time>
      </trkpt>
      <trkpt lat="44.27126" lon="6.19833">
        <ele>1853.15</ele>
        <time>2019-08-15T08:47:04Z</time>
      </trkpt>
      <trkpt lat="44.27108" lon="6.19817">
        <ele>1856.12</ele>
        <time>2019-08-15T08:47:25Z</time>
      </trkpt>
      <trkpt lat="44.27107" lon="6.19802">
        <ele>1857.6</ele>
        <time>2019-08-15T08:47:42Z</time>
      </trkpt>
      <trkpt lat="44.27105" lon="6.19784">
        <ele>1859.26</ele>
        <time>2019-08-15T08:48:00Z</time>
      </trkpt>
      <trkpt lat="44.27097" lon="6.19767">
        <ele>1862.49</ele>
        <time>2019-08-15T08:48:21Z</time>
      </trkpt>
      <trkpt lat="44.27087" lon="6.19757">
        <ele>1865.45</ele>
        <time>2019-08-15T08:48:39Z</time>
      </trkpt>
      <trkpt lat="44.27076" lon="6.19748">
        <ele>1867.4</ele>
        <time>2019-08-15T08:49:01Z</time>
      </trkpt>
      <trkpt lat="44.27054" lon="6.19741">
        <ele>1869.18</ele>
        <time>2019-08-15T08:49:22Z</time>
      </trkpt>
      <trkpt lat="44.27032" lon="6.19737">
        <ele>1870.33</ele>
        <time>2019-08-15T08:49:40Z</time>
      </trkpt>
      <trkpt lat="44.2702" lon="6.19731">
        <ele>1872.3</ele>
        <time>2019-08-15T08:50:02Z</time>
      </trkpt>
      <trkpt lat="44.27005" lon="6.19719">
        <ele>1874.77</ele>
        <time>2019-08-15T08:50:21Z</time>
      </trkpt>
      <trkpt lat="44.27" lon="6.19706">
        <ele>1877.39</ele>
        <time>2019-08-15T08:50:42Z</time>
      </trkpt>
      <trkpt lat="44.26993" lon="6.19698">
        <ele>1879.71</ele>
        <time>2019-08-15T08:51:00Z</time>
      </trkpt>
      <trkpt lat="44.26992" lon="6.19697">
        <ele>1880.22</ele>
        <time>2019-08-15T08:51:03Z</time>
      </trkpt>
      <trkpt lat="44.26975" lon="6.19687">
        <ele>1882.46</ele>
        <time>2019-08-15T08:51:24Z</time>
      </trkpt>
      <trkpt lat="44.26957" lon="6.19678">
        <ele>1885.36</ele>
        <time>2019-08-15T08:51:45Z</time>
      </trkpt>
      <trkpt lat="44.26946" lon="6.19666">
        <ele>1887.86</ele>
        <time>2019-08-15T08:52:07Z</time>
      </trkpt>
      <trkpt lat="44.2694" lon="6.19656">
        <ele>1890.98</ele>
        <time>2019-08-15T08:52:24Z</time>
      </trkpt>
      <trkpt lat="44.26938" lon="6.19655">
        <ele>1891.66</ele>
        <time>2019-08-15T08:52:29Z</time>
      </trkpt>
      <trkpt lat="44.26925" lon="6.19641">
        <ele>1894.75</ele>
        <time>2019-08-15T08:52:51Z</time>
      </trkpt>
      <trkpt lat="44.26921" lon="6.19636">
        <ele>1894.93</ele>
        <time>2019-08-15T08:52:59Z</time>
      </trkpt>
      <trkpt lat="44.26905" lon="6.19614">
        <ele>1895.45</ele>
        <time>2019-08-15T08:53:14Z</time>
      </trkpt>
      <trkpt lat="44.26887" lon="6.19603">
        <ele>1896.34</ele>
        <time>2019-08-15T08:53:33Z</time>
      </trkpt>
      <trkpt lat="44.26873" lon="6.19577">
        <ele>1897.49</ele>
        <time>2019-08-15T08:54:01Z</time>
      </trkpt>
      <trkpt lat="44.2686" lon="6.19554">
        <ele>1899.33</ele>
        <time>2019-08-15T08:54:26Z</time>
      </trkpt>
      <trkpt lat="44.26857" lon="6.19536">
        <ele>1902.42</ele>
        <time>2019-08-15T08:54:47Z</time>
      </trkpt>
      <trkpt lat="44.26852" lon="6.19519">
        <ele>1905.48</ele>
        <time>2019-08-15T08:55:07Z</time>
      </trkpt>
      <trkpt lat="44.26847" lon="6.19507">
        <ele>1907.47</ele>
        <time>2019-08-15T08:55:26Z</time>
      </trkpt>
      <trkpt lat="44.26848" lon="6.195">
        <ele>1907.9</ele>
        <time>2019-08-15T08:55:54Z</time>
      </trkpt>
      <trkpt lat="44.26849" lon="6.19496">
        <ele>1908.03</ele>
        <time>2019-08-15T08:56:22Z</time>
      </trkpt>
      <trkpt lat="44.26847" lon="6.19488">
        <ele>1908.77</ele>
        <time>2019-08-15T08:56:44Z</time>
      </trkpt>
      <trkpt lat="44.26846" lon="6.19472">
        <ele>1910.45</ele>
        <time>2019-08-15T08:57:03Z</time>
      </trkpt>
      <trkpt lat="44.26843" lon="6.19457">
        <ele>1913.5</ele>
        <time>2019-08-15T08:57:25Z</time>
      </trkpt>
      <trkpt lat="44.26839" lon="6.19442">
        <ele>1916.3</ele>
        <time>2019-08-15T08:57:46Z</time>
      </trkpt>
      <trkpt lat="44.26839" lon="6.19426">
        <ele>1919.34</ele>
        <time>2019-08-15T08:58:05Z</time>
      </trkpt>
      <trkpt lat="44.26842" lon="6.19404">
        <ele>1921.76</ele>
        <time>2019-08-15T08:58:27Z</time>
      </trkpt>
      <trkpt lat="44.26843" lon="6.1939">
        <ele>1923.64</ele>
        <time>2019-08-15T08:58:45Z</time>
      </trkpt>
      <trkpt lat="44.26844" lon="6.19373">
        <ele>1926.2</ele>
        <time>2019-08-15T08:59:05Z</time>
      </trkpt>
      <trkpt lat="44.26845" lon="6.19362">
        <ele>1928</ele>
        <time>2019-08-15T08:59:25Z</time>
      </trkpt>
      <trkpt lat="44.26851" lon="6.19342">
        <ele>1931</ele>
        <time>2019-08-15T08:59:46Z</time>
      </trkpt>
      <trkpt lat="44.26862" lon="6.19324">
        <ele>1932.47</ele>
        <time>2019-08-15T09:00:08Z</time>
      </trkpt>
      <trkpt lat="44.26873" lon="6.19305">
        <ele>1935.51</ele>
        <time>2019-08-15T09:00:30Z</time>
      </trkpt>
      <trkpt lat="44.2688" lon="6.1928">
        <ele>1937.46</ele>
        <time>2019-08-15T09:00:57Z</time>
      </trkpt>
      <trkpt lat="44.2688" lon="6.1926">
        <ele>1939.92</ele>
        <time>2019-08-15T09:01:21Z</time>
      </trkpt>
      <trkpt lat="44.26885" lon="6.19249">
        <ele>1942.54</ele>
        <time>2019-08-15T09:01:41Z</time>
      </trkpt>
      <trkpt lat="44.26889" lon="6.19243">
        <ele>1943.34</ele>
        <time>2019-08-15T09:01:57Z</time>
      </trkpt>
      <trkpt lat="44.26891" lon="6.19239">
        <ele>1943.87</ele>
        <time>2019-08-15T09:02:17Z</time>
      </trkpt>
      <trkpt lat="44.26895" lon="6.19232">
        <ele>1943.81</ele>
        <time>2019-08-15T09:02:37Z</time>
      </trkpt>
      <trkpt lat="44.26898" lon="6.19227">
        <ele>1943.38</ele>
        <time>2019-08-15T09:02:55Z</time>
      </trkpt>
      <trkpt lat="44.26905" lon="6.19216">
        <ele>1941.17</ele>
        <time>2019-08-15T09:03:15Z</time>
      </trkpt>
      <trkpt lat="44.26912" lon="6.19203">
        <ele>1938.79</ele>
        <time>2019-08-15T09:03:35Z</time>
      </trkpt>
      <trkpt lat="44.26921" lon="6.19195">
        <ele>1936.71</ele>
        <time>2019-08-15T09:03:54Z</time>
      </trkpt>
      <trkpt lat="44.26922" lon="6.19176">
        <ele>1934.35</ele>
        <time>2019-08-15T09:04:13Z</time>
      </trkpt>
      <trkpt lat="44.26931" lon="6.19163">
        <ele>1932.71</ele>
        <time>2019-08-15T09:04:34Z</time>
      </trkpt>
      <trkpt lat="44.26936" lon="6.19157">
        <ele>1932.06</ele>
        <time>2019-08-15T09:04:44Z</time>
      </trkpt>
      <trkpt lat="44.26942" lon="6.19144">
        <ele>1931.69</ele>
        <time>2019-08-15T09:05:08Z</time>
      </trkpt>
      <trkpt lat="44.2695" lon="6.19132">
        <ele>1930.67</ele>
        <time>2019-08-15T09:05:27Z</time>
      </trkpt>
      <trkpt lat="44.26958" lon="6.19122">
        <ele>1929.39</ele>
        <time>2019-08-15T09:05:43Z</time>
      </trkpt>
      <trkpt lat="44.26964" lon="6.19105">
        <ele>1928.76</ele>
        <time>2019-08-15T09:06:05Z</time>
      </trkpt>
      <trkpt lat="44.26968" lon="6.19085">
        <ele>1930.73</ele>
        <time>2019-08-15T09:06:24Z</time>
      </trkpt>
      <trkpt lat="44.2698" lon="6.19067">
        <ele>1930.38</ele>
        <time>2019-08-15T09:06:47Z</time>
      </trkpt>
      <trkpt lat="44.26989" lon="6.19054">
        <ele>1930.38</ele>
        <time>2019-08-15T09:07:07Z</time>
      </trkpt>
      <trkpt lat="44.26992" lon="6.19028">
        <ele>1932.32</ele>
        <time>2019-08-15T09:07:30Z</time>
      </trkpt>
      <trkpt lat="44.26999" lon="6.18997">
        <ele>1935.05</ele>
        <time>2019-08-15T09:07:55Z</time>
      </trkpt>
      <trkpt lat="44.26999" lon="6.18991">
        <ele>1935.75</ele>
        <time>2019-08-15T09:08:01Z</time>
      </trkpt>
      <trkpt lat="44.26999" lon="6.18982">
        <ele>1936.15</ele>
        <time>2019-08-15T09:08:22Z</time>
      </trkpt>
      <trkpt lat="44.26994" lon="6.18974">
        <ele>1935.12</ele>
        <time>2019-08-15T09:08:50Z</time>
      </trkpt>
      <trkpt lat="44.26992" lon="6.18965">
        <ele>1934.49</ele>
        <time>2019-08-15T09:09:14Z</time>
      </trkpt>
      <trkpt lat="44.26983" lon="6.18947">
        <ele>1934.19</ele>
        <time>2019-08-15T09:09:35Z</time>
      </trkpt>
      <trkpt lat="44.26977" lon="6.18921">
        <ele>1935.23</ele>
        <time>2019-08-15T09:09:56Z</time>
      </trkpt>
      <trkpt lat="44.26974" lon="6.18902">
        <ele>1936.73</ele>
        <time>2019-08-15T09:10:17Z</time>
      </trkpt>
      <trkpt lat="44.26975" lon="6.18879">
        <ele>1937.11</ele>
        <time>2019-08-15T09:10:37Z</time>
      </trkpt>
      <trkpt lat="44.26978" lon="6.18858">
        <ele>1936.88</ele>
        <time>2019-08-15T09:10:57Z</time>
      </trkpt>
      <trkpt lat="44.26981" lon="6.18843">
        <ele>1937.71</ele>
        <time>2019-08-15T09:11:10Z</time>
      </trkpt>
      <trkpt lat="44.26982" lon="6.18835">
        <ele>1937.74</ele>
        <time>2019-08-15T09:11:21Z</time>
      </trkpt>
      <trkpt lat="44.26974" lon="6.18819">
        <ele>1936.2</ele>
        <time>2019-08-15T09:11:38Z</time>
      </trkpt>
      <trkpt lat="44.26972" lon="6.18802">
        <ele>1933.68</ele>
        <time>2019-08-15T09:11:56Z</time>
      </trkpt>
      <trkpt lat="44.26974" lon="6.18778">
        <ele>1932.03</ele>
        <time>2019-08-15T09:12:17Z</time>
      </trkpt>
      <trkpt lat="44.26978" lon="6.18754">
        <ele>1929.9</ele>
        <time>2019-08-15T09:12:39Z</time>
      </trkpt>
      <trkpt lat="44.26981" lon="6.18726">
        <ele>1927.51</ele>
        <time>2019-08-15T09:13:02Z</time>
      </trkpt>
      <trkpt lat="44.26985" lon="6.18695">
        <ele>1926.86</ele>
        <time>2019-08-15T09:13:28Z</time>
      </trkpt>
      <trkpt lat="44.26991" lon="6.18672">
        <ele>1926.19</ele>
        <time>2019-08-15T09:13:50Z</time>
      </trkpt>
      <trkpt lat="44.26995" lon="6.18657">
        <ele>1925.69</ele>
        <time>2019-08-15T09:14:03Z</time>
      </trkpt>
      <trkpt lat="44.26996" lon="6.1864">
        <ele>1927.54</ele>
        <time>2019-08-15T09:14:20Z</time>
      </trkpt>
      <trkpt lat="44.26998" lon="6.18627">
        <ele>1930.67</ele>
        <time>2019-08-15T09:14:39Z</time>
      </trkpt>
      <trkpt lat="44.26993" lon="6.18624">
        <ele>1933.77</ele>
        <time>2019-08-15T09:14:53Z</time>
      </trkpt>
      <trkpt lat="44.26993" lon="6.18623">
        <ele>1934.74</ele>
        <time>2019-08-15T09:15:22Z</time>
      </trkpt>
      <trkpt lat="44.26993" lon="6.18623">
        <ele>1934.83</ele>
        <time>2019-08-15T09:15:49Z</time>
      </trkpt>
      <trkpt lat="44.26992" lon="6.18621">
        <ele>1934.47</ele>
        <time>2019-08-15T09:16:18Z</time>
      </trkpt>
      <trkpt lat="44.26991" lon="6.1862">
        <ele>1934.42</ele>
        <time>2019-08-15T09:16:53Z</time>
      </trkpt>
      <trkpt lat="44.26984" lon="6.18625">
        <ele>1935.87</ele>
        <time>2019-08-15T09:17:13Z</time>
      </trkpt>
      <trkpt lat="44.26979" lon="6.18628">
        <ele>1937.4</ele>
        <time>2019-08-15T09:17:32Z</time>
      </trkpt>
      <trkpt lat="44.26968" lon="6.18639">
        <ele>1940.41</ele>
        <time>2019-08-15T09:17:53Z</time>
      </trkpt>
      <trkpt lat="44.26962" lon="6.18651">
        <ele>1943.51</ele>
        <time>2019-08-15T09:18:12Z</time>
      </trkpt>
      <trkpt lat="44.26956" lon="6.18662">
        <ele>1946.29</ele>
        <time>2019-08-15T09:18:32Z</time>
      </trkpt>
      <trkpt lat="44.26947" lon="6.18672">
        <ele>1949.45</ele>
        <time>2019-08-15T09:18:52Z</time>
      </trkpt>
      <trkpt lat="44.26942" lon="6.1868">
        <ele>1952.58</ele>
        <time>2019-08-15T09:19:08Z</time>
      </trkpt>
      <trkpt lat="44.26936" lon="6.18687">
        <ele>1955.7</ele>
        <time>2019-08-15T09:19:25Z</time>
      </trkpt>
      <trkpt lat="44.26928" lon="6.18692">
        <ele>1958.75</ele>
        <time>2019-08-15T09:19:42Z</time>
      </trkpt>
      <trkpt lat="44.26922" lon="6.18695">
        <ele>1961.78</ele>
        <time>2019-08-15T09:19:59Z</time>
      </trkpt>
      <trkpt lat="44.26916" lon="6.18699">
        <ele>1964.87</ele>
        <time>2019-08-15T09:20:17Z</time>
      </trkpt>
      <trkpt lat="44.26909" lon="6.18703">
        <ele>1967.94</ele>
        <time>2019-08-15T09:20:34Z</time>
      </trkpt>
      <trkpt lat="44.26902" lon="6.18707">
        <ele>1970.96</ele>
        <time>2019-08-15T09:20:52Z</time>
      </trkpt>
      <trkpt lat="44.26893" lon="6.18705">
        <ele>1974.09</ele>
        <time>2019-08-15T09:21:11Z</time>
      </trkpt>
      <trkpt lat="44.26886" lon="6.18706">
        <ele>1977.11</ele>
        <time>2019-08-15T09:21:29Z</time>
      </trkpt>
      <trkpt lat="44.26883" lon="6.18721">
        <ele>1979.41</ele>
        <time>2019-08-15T09:21:48Z</time>
      </trkpt>
      <trkpt lat="44.26879" lon="6.1874">
        <ele>1981.94</ele>
        <time>2019-08-15T09:22:10Z</time>
      </trkpt>
      <trkpt lat="44.26871" lon="6.18762">
        <ele>1984.56</ele>
        <time>2019-08-15T09:22:34Z</time>
      </trkpt>
      <trkpt lat="44.2687" lon="6.18778">
        <ele>1986.96</ele>
        <time>2019-08-15T09:22:55Z</time>
      </trkpt>
      <trkpt lat="44.2687" lon="6.18792">
        <ele>1987.37</ele>
        <time>2019-08-15T09:23:20Z</time>
      </trkpt>
      <trkpt lat="44.26867" lon="6.18813">
        <ele>1989.97</ele>
        <time>2019-08-15T09:23:43Z</time>
      </trkpt>
      <trkpt lat="44.2686" lon="6.18825">
        <ele>1992.97</ele>
        <time>2019-08-15T09:24:03Z</time>
      </trkpt>
      <trkpt lat="44.26854" lon="6.18838">
        <ele>1996.09</ele>
        <time>2019-08-15T09:24:21Z</time>
      </trkpt>
      <trkpt lat="44.2685" lon="6.18858">
        <ele>1999.1</ele>
        <time>2019-08-15T09:24:45Z</time>
      </trkpt>
      <trkpt lat="44.26847" lon="6.18879">
        <ele>2001.35</ele>
        <time>2019-08-15T09:25:07Z</time>
      </trkpt>
      <trkpt lat="44.26845" lon="6.18905">
        <ele>2003.82</ele>
        <time>2019-08-15T09:25:32Z</time>
      </trkpt>
      <trkpt lat="44.26844" lon="6.18914">
        <ele>2005.45</ele>
        <time>2019-08-15T09:25:50Z</time>
      </trkpt>
      <trkpt lat="44.26841" lon="6.18927">
        <ele>2005.06</ele>
        <time>2019-08-15T09:26:08Z</time>
      </trkpt>
      <trkpt lat="44.26844" lon="6.18946">
        <ele>2006.37</ele>
        <time>2019-08-15T09:26:27Z</time>
      </trkpt>
      <trkpt lat="44.26838" lon="6.18962">
        <ele>2008.54</ele>
        <time>2019-08-15T09:26:46Z</time>
      </trkpt>
      <trkpt lat="44.2683" lon="6.18976">
        <ele>2011.56</ele>
        <time>2019-08-15T09:27:05Z</time>
      </trkpt>
      <trkpt lat="44.26822" lon="6.18988">
        <ele>2014.64</ele>
        <time>2019-08-15T09:27:26Z</time>
      </trkpt>
      <trkpt lat="44.26822" lon="6.19009">
        <ele>2017.29</ele>
        <time>2019-08-15T09:27:52Z</time>
      </trkpt>
      <trkpt lat="44.26821" lon="6.1902">
        <ele>2020.35</ele>
        <time>2019-08-15T09:28:12Z</time>
      </trkpt>
      <trkpt lat="44.26816" lon="6.19038">
        <ele>2023.35</ele>
        <time>2019-08-15T09:28:34Z</time>
      </trkpt>
      <trkpt lat="44.26812" lon="6.19041">
        <ele>2023.01</ele>
        <time>2019-08-15T09:28:54Z</time>
      </trkpt>
      <trkpt lat="44.2681" lon="6.19042">
        <ele>2023.18</ele>
        <time>2019-08-15T09:29:17Z</time>
      </trkpt>
      <trkpt lat="44.26805" lon="6.19046">
        <ele>2023.34</ele>
        <time>2019-08-15T09:29:41Z</time>
      </trkpt>
      <trkpt lat="44.26795" lon="6.19056">
        <ele>2024.62</ele>
        <time>2019-08-15T09:30:02Z</time>
      </trkpt>
      <trkpt lat="44.26786" lon="6.19074">
        <ele>2025.52</ele>
        <time>2019-08-15T09:30:25Z</time>
      </trkpt>
      <trkpt lat="44.26779" lon="6.19086">
        <ele>2028.58</ele>
        <time>2019-08-15T09:30:46Z</time>
      </trkpt>
      <trkpt lat="44.26773" lon="6.19101">
        <ele>2030.89</ele>
        <time>2019-08-15T09:31:08Z</time>
      </trkpt>
      <trkpt lat="44.26772" lon="6.19116">
        <ele>2031.73</ele>
        <time>2019-08-15T09:31:25Z</time>
      </trkpt>
      <trkpt lat="44.2677" lon="6.19133">
        <ele>2031.76</ele>
        <time>2019-08-15T09:31:43Z</time>
      </trkpt>
      <trkpt lat="44.26767" lon="6.19144">
        <ele>2033.31</ele>
        <time>2019-08-15T09:32:00Z</time>
      </trkpt>
      <trkpt lat="44.26761" lon="6.19158">
        <ele>2035.61</ele>
        <time>2019-08-15T09:32:18Z</time>
      </trkpt>
      <trkpt lat="44.26754" lon="6.19175">
        <ele>2038.6</ele>
        <time>2019-08-15T09:32:39Z</time>
      </trkpt>
      <trkpt lat="44.26747" lon="6.19187">
        <ele>2041.43</ele>
        <time>2019-08-15T09:32:59Z</time>
      </trkpt>
      <trkpt lat="44.26734" lon="6.19202">
        <ele>2042.92</ele>
        <time>2019-08-15T09:33:23Z</time>
      </trkpt>
      <trkpt lat="44.26724" lon="6.19211">
        <ele>2045.55</ele>
        <time>2019-08-15T09:33:41Z</time>
      </trkpt>
      <trkpt lat="44.26717" lon="6.19214">
        <ele>2048.56</ele>
        <time>2019-08-15T09:34:01Z</time>
      </trkpt>
      <trkpt lat="44.26714" lon="6.19221">
        <ele>2048.88</ele>
        <time>2019-08-15T09:34:20Z</time>
      </trkpt>
      <trkpt lat="44.26708" lon="6.19231">
        <ele>2051.57</ele>
        <time>2019-08-15T09:34:40Z</time>
      </trkpt>
      <trkpt lat="44.26703" lon="6.19237">
        <ele>2054.65</ele>
        <time>2019-08-15T09:34:58Z</time>
      </trkpt>
      <trkpt lat="44.26698" lon="6.19244">
        <ele>2056.75</ele>
        <time>2019-08-15T09:35:19Z</time>
      </trkpt>
      <trkpt lat="44.26692" lon="6.19249">
        <ele>2059.05</ele>
        <time>2019-08-15T09:35:37Z</time>
      </trkpt>
      <trkpt lat="44.26688" lon="6.19257">
        <ele>2061.82</ele>
        <time>2019-08-15T09:35:59Z</time>
      </trkpt>
      <trkpt lat="44.26684" lon="6.19257">
        <ele>2063.7</ele>
        <time>2019-08-15T09:36:19Z</time>
      </trkpt>
      <trkpt lat="44.26682" lon="6.19255">
        <ele>2065.19</ele>
        <time>2019-08-15T09:36:37Z</time>
      </trkpt>
      <trkpt lat="44.26676" lon="6.19265">
        <ele>2067.18</ele>
        <time>2019-08-15T09:37:00Z</time>
      </trkpt>
      <trkpt lat="44.26675" lon="6.19273">
        <ele>2065.89</ele>
        <time>2019-08-15T09:37:23Z</time>
      </trkpt>
      <trkpt lat="44.26671" lon="6.19285">
        <ele>2065.97</ele>
        <time>2019-08-15T09:37:40Z</time>
      </trkpt>
      <trkpt lat="44.26663" lon="6.19299">
        <ele>2069.02</ele>
        <time>2019-08-15T09:37:59Z</time>
      </trkpt>
      <trkpt lat="44.26656" lon="6.19317">
        <ele>2072.23</ele>
        <time>2019-08-15T09:38:17Z</time>
      </trkpt>
      <trkpt lat="44.26653" lon="6.19323">
        <ele>2075.32</ele>
        <time>2019-08-15T09:38:30Z</time>
      </trkpt>
      <trkpt lat="44.26651" lon="6.19331">
        <ele>2078.56</ele>
        <time>2019-08-15T09:38:47Z</time>
      </trkpt>
      <trkpt lat="44.2665" lon="6.19339">
        <ele>2081.6</ele>
        <time>2019-08-15T09:39:04Z</time>
      </trkpt>
      <trkpt lat="44.26645" lon="6.19349">
        <ele>2084.68</ele>
        <time>2019-08-15T09:39:20Z</time>
      </trkpt>
      <trkpt lat="44.26638" lon="6.19358">
        <ele>2087.79</ele>
        <time>2019-08-15T09:39:37Z</time>
      </trkpt>
      <trkpt lat="44.26631" lon="6.1936">
        <ele>2090.34</ele>
        <time>2019-08-15T09:39:55Z</time>
      </trkpt>
      <trkpt lat="44.26623" lon="6.19357">
        <ele>2093.43</ele>
        <time>2019-08-15T09:40:12Z</time>
      </trkpt>
      <trkpt lat="44.26617" lon="6.19369">
        <ele>2096.55</ele>
        <time>2019-08-15T09:40:32Z</time>
      </trkpt>
      <trkpt lat="44.26611" lon="6.19381">
        <ele>2099.59</ele>
        <time>2019-08-15T09:40:49Z</time>
      </trkpt>
      <trkpt lat="44.26604" lon="6.19394">
        <ele>2101.86</ele>
        <time>2019-08-15T09:41:13Z</time>
      </trkpt>
      <trkpt lat="44.26589" lon="6.19389">
        <ele>2103.23</ele>
        <time>2019-08-15T09:41:32Z</time>
      </trkpt>
      <trkpt lat="44.26574" lon="6.19395">
        <ele>2106.18</ele>
        <time>2019-08-15T09:41:56Z</time>
      </trkpt>
      <trkpt lat="44.26566" lon="6.19399">
        <ele>2109.28</ele>
        <time>2019-08-15T09:42:11Z</time>
      </trkpt>
      <trkpt lat="44.26558" lon="6.19404">
        <ele>2112.31</ele>
        <time>2019-08-15T09:42:27Z</time>
      </trkpt>
      <trkpt lat="44.26557" lon="6.19406">
        <ele>2112.98</ele>
        <time>2019-08-15T09:42:50Z</time>
      </trkpt>
      <trkpt lat="44.26555" lon="6.19402">
        <ele>2113.17</ele>
        <time>2019-08-15T09:43:10Z</time>
      </trkpt>
      <trkpt lat="44.26557" lon="6.19404">
        <ele>2112.86</ele>
        <time>2019-08-15T09:43:34Z</time>
      </trkpt>
      <trkpt lat="44.26556" lon="6.19405">
        <ele>2112.93</ele>
        <time>2019-08-15T09:43:54Z</time>
      </trkpt>
      <trkpt lat="44.26557" lon="6.19405">
        <ele>2112.78</ele>
        <time>2019-08-15T09:44:25Z</time>
      </trkpt>
      <trkpt lat="44.26557" lon="6.19403">
        <ele>2112.98</ele>
        <time>2019-08-15T09:44:49Z</time>
      </trkpt>
      <trkpt lat="44.26558" lon="6.19404">
        <ele>2112.86</ele>
        <time>2019-08-15T09:45:14Z</time>
      </trkpt>
      <trkpt lat="44.26558" lon="6.19404">
        <ele>2113.1</ele>
        <time>2019-08-15T09:45:38Z</time>
      </trkpt>
      <trkpt lat="44.26556" lon="6.19404">
        <ele>2113.07</ele>
        <time>2019-08-15T09:46:01Z</time>
      </trkpt>
      <trkpt lat="44.26555" lon="6.19404">
        <ele>2113.22</ele>
        <time>2019-08-15T09:46:37Z</time>
      </trkpt>
      <trkpt lat="44.26556" lon="6.19405">
        <ele>2113.07</ele>
        <time>2019-08-15T09:47:06Z</time>
      </trkpt>
      <trkpt lat="44.26556" lon="6.19405">
        <ele>2112.8</ele>
        <time>2019-08-15T09:47:27Z</time>
      </trkpt>
      <trkpt lat="44.26557" lon="6.19402">
        <ele>2112.92</ele>
        <time>2019-08-15T09:47:55Z</time>
      </trkpt>
      <trkpt lat="44.26558" lon="6.19402">
        <ele>2113.18</ele>
        <time>2019-08-15T09:48:22Z</time>
      </trkpt>
      <trkpt lat="44.26559" lon="6.19403">
        <ele>2113.26</ele>
        <time>2019-08-15T09:48:46Z</time>
      </trkpt>
      <trkpt lat="44.26555" lon="6.19403">
        <ele>2112.98</ele>
        <time>2019-08-15T09:49:09Z</time>
      </trkpt>
      <trkpt lat="44.26555" lon="6.19402">
        <ele>2113.14</ele>
        <time>2019-08-15T09:49:38Z</time>
      </trkpt>
      <trkpt lat="44.26554" lon="6.19402">
        <ele>2113.37</ele>
        <time>2019-08-15T09:50:11Z</time>
      </trkpt>
      <trkpt lat="44.26556" lon="6.19406">
        <ele>2113.29</ele>
        <time>2019-08-15T09:50:32Z</time>
      </trkpt>
      <trkpt lat="44.26557" lon="6.19405">
        <ele>2113.64</ele>
        <time>2019-08-15T09:50:57Z</time>
      </trkpt>
      <trkpt lat="44.26557" lon="6.19406">
        <ele>2113.62</ele>
        <time>2019-08-15T09:51:21Z</time>
      </trkpt>
      <trkpt lat="44.26557" lon="6.19406">
        <ele>2113.23</ele>
        <time>2019-08-15T09:51:46Z</time>
      </trkpt>
      <trkpt lat="44.26556" lon="6.19404">
        <ele>2113.22</ele>
        <time>2019-08-15T09:52:17Z</time>
      </trkpt>
      <trkpt lat="44.26555" lon="6.19403">
        <ele>2113.72</ele>
        <time>2019-08-15T09:52:48Z</time>
      </trkpt>
      <trkpt lat="44.26556" lon="6.19406">
        <ele>2113.64</ele>
        <time>2019-08-15T09:53:09Z</time>
      </trkpt>
      <trkpt lat="44.26555" lon="6.1941">
        <ele>2113.8</ele>
        <time>2019-08-15T09:53:29Z</time>
      </trkpt>
      <trkpt lat="44.26554" lon="6.19409">
        <ele>2113.86</ele>
        <time>2019-08-15T09:53:50Z</time>
      </trkpt>
      <trkpt lat="44.26551" lon="6.19409">
        <ele>2113.54</ele>
        <time>2019-08-15T09:54:10Z</time>
      </trkpt>
      <trkpt lat="44.26555" lon="6.1941">
        <ele>2113.59</ele>
        <time>2019-08-15T09:54:36Z</time>
      </trkpt>
      <trkpt lat="44.26557" lon="6.19417">
        <ele>2113.4</ele>
        <time>2019-08-15T09:54:55Z</time>
      </trkpt>
      <trkpt lat="44.26561" lon="6.1944">
        <ele>2112.2</ele>
        <time>2019-08-15T09:55:15Z</time>
      </trkpt>
      <trkpt lat="44.2656" lon="6.19442">
        <ele>2111.96</ele>
        <time>2019-08-15T09:55:17Z</time>
      </trkpt>
      <trkpt lat="44.26555" lon="6.19451">
        <ele>2110.03</ele>
        <time>2019-08-15T09:55:31Z</time>
      </trkpt>
      <trkpt lat="44.26544" lon="6.19452">
        <ele>2106.97</ele>
        <time>2019-08-15T09:55:49Z</time>
      </trkpt>
      <trkpt lat="44.26534" lon="6.19452">
        <ele>2103.75</ele>
        <time>2019-08-15T09:56:01Z</time>
      </trkpt>
      <trkpt lat="44.26519" lon="6.19455">
        <ele>2100.74</ele>
        <time>2019-08-15T09:56:20Z</time>
      </trkpt>
      <trkpt lat="44.26516" lon="6.19459">
        <ele>2100.59</ele>
        <time>2019-08-15T09:56:25Z</time>
      </trkpt>
      <trkpt lat="44.26513" lon="6.19458">
        <ele>2100.76</ele>
        <time>2019-08-15T09:56:35Z</time>
      </trkpt>
      <trkpt lat="44.26497" lon="6.1945">
        <ele>2099.92</ele>
        <time>2019-08-15T09:56:52Z</time>
      </trkpt>
      <trkpt lat="44.26477" lon="6.19442">
        <ele>2098.41</ele>
        <time>2019-08-15T09:57:11Z</time>
      </trkpt>
      <trkpt lat="44.26456" lon="6.19435">
        <ele>2097.54</ele>
        <time>2019-08-15T09:57:29Z</time>
      </trkpt>
      <trkpt lat="44.26436" lon="6.19434">
        <ele>2097.62</ele>
        <time>2019-08-15T09:57:46Z</time>
      </trkpt>
      <trkpt lat="44.26414" lon="6.19432">
        <ele>2098.09</ele>
        <time>2019-08-15T09:58:05Z</time>
      </trkpt>
      <trkpt lat="44.264" lon="6.19432">
        <ele>2100.44</ele>
        <time>2019-08-15T09:58:22Z</time>
      </trkpt>
      <trkpt lat="44.26394" lon="6.1943">
        <ele>2103.29</ele>
        <time>2019-08-15T09:58:39Z</time>
      </trkpt>
      <trkpt lat="44.26382" lon="6.1943">
        <ele>2106.39</ele>
        <time>2019-08-15T09:58:56Z</time>
      </trkpt>
      <trkpt lat="44.26373" lon="6.1943">
        <ele>2109.46</ele>
        <time>2019-08-15T09:59:09Z</time>
      </trkpt>
      <trkpt lat="44.26358" lon="6.19428">
        <ele>2112.51</ele>
        <time>2019-08-15T09:59:28Z</time>
      </trkpt>
      <trkpt lat="44.26349" lon="6.19428">
        <ele>2114.24</ele>
        <time>2019-08-15T09:59:39Z</time>
      </trkpt>
      <trkpt lat="44.2634" lon="6.19428">
        <ele>2115.2</ele>
        <time>2019-08-15T09:59:49Z</time>
      </trkpt>
      <trkpt lat="44.26329" lon="6.19441">
        <ele>2115.67</ele>
        <time>2019-08-15T10:00:07Z</time>
      </trkpt>
      <trkpt lat="44.2631" lon="6.19439">
        <ele>2115.47</ele>
        <time>2019-08-15T10:00:25Z</time>
      </trkpt>
      <trkpt lat="44.26293" lon="6.19436">
        <ele>2115.65</ele>
        <time>2019-08-15T10:00:43Z</time>
      </trkpt>
      <trkpt lat="44.26283" lon="6.1943">
        <ele>2116.2</ele>
        <time>2019-08-15T10:01:00Z</time>
      </trkpt>
      <trkpt lat="44.26281" lon="6.1943">
        <ele>2116.03</ele>
        <time>2019-08-15T10:01:18Z</time>
      </trkpt>
      <trkpt lat="44.26281" lon="6.19428">
        <ele>2116.4</ele>
        <time>2019-08-15T10:01:43Z</time>
      </trkpt>
      <trkpt lat="44.26281" lon="6.19425">
        <ele>2116.87</ele>
        <time>2019-08-15T10:02:05Z</time>
      </trkpt>
      <trkpt lat="44.26282" lon="6.19426">
        <ele>2116.64</ele>
        <time>2019-08-15T10:02:29Z</time>
      </trkpt>
      <trkpt lat="44.26282" lon="6.19426">
        <ele>2117.05</ele>
        <time>2019-08-15T10:02:53Z</time>
      </trkpt>
      <trkpt lat="44.26285" lon="6.19426">
        <ele>2117.31</ele>
        <time>2019-08-15T10:03:13Z</time>
      </trkpt>
      <trkpt lat="44.26287" lon="6.19425">
        <ele>2117.22</ele>
        <time>2019-08-15T10:03:41Z</time>
      </trkpt>
      <trkpt lat="44.26286" lon="6.19428">
        <ele>2117.72</ele>
        <time>2019-08-15T10:04:07Z</time>
      </trkpt>
      <trkpt lat="44.26287" lon="6.19429">
        <ele>2117.31</ele>
        <time>2019-08-15T10:04:37Z</time>
      </trkpt>
      <trkpt lat="44.26286" lon="6.19427">
        <ele>2117.6</ele>
        <time>2019-08-15T10:05:00Z</time>
      </trkpt>
      <trkpt lat="44.26286" lon="6.1943">
        <ele>2116.83</ele>
        <time>2019-08-15T10:05:23Z</time>
      </trkpt>
      <trkpt lat="44.26284" lon="6.19431">
        <ele>2116.94</ele>
        <time>2019-08-15T10:05:57Z</time>
      </trkpt>
      <trkpt lat="44.26285" lon="6.19431">
        <ele>2116.64</ele>
        <time>2019-08-15T10:06:21Z</time>
      </trkpt>
      <trkpt lat="44.26282" lon="6.19436">
        <ele>2116.07</ele>
        <time>2019-08-15T10:06:40Z</time>
      </trkpt>
      <trkpt lat="44.26284" lon="6.19443">
        <ele>2115.46</ele>
        <time>2019-08-15T10:07:03Z</time>
      </trkpt>
      <trkpt lat="44.26284" lon="6.19462">
        <ele>2112.84</ele>
        <time>2019-08-15T10:07:19Z</time>
      </trkpt>
      <trkpt lat="44.26281" lon="6.19472">
        <ele>2111.75</ele>
        <time>2019-08-15T10:07:26Z</time>
      </trkpt>
      <trkpt lat="44.26279" lon="6.19475">
        <ele>2111.29</ele>
        <time>2019-08-15T10:07:29Z</time>
      </trkpt>
      <trkpt lat="44.2628" lon="6.19502">
        <ele>2108.96</ele>
        <time>2019-08-15T10:07:47Z</time>
      </trkpt>
      <trkpt lat="44.2628" lon="6.19525">
        <ele>2107.02</ele>
        <time>2019-08-15T10:08:03Z</time>
      </trkpt>
      <trkpt lat="44.2628" lon="6.19536">
        <ele>2105.51</ele>
        <time>2019-08-15T10:08:11Z</time>
      </trkpt>
      <trkpt lat="44.2628" lon="6.19556">
        <ele>2103.82</ele>
        <time>2019-08-15T10:08:27Z</time>
      </trkpt>
      <trkpt lat="44.2628" lon="6.19581">
        <ele>2101.79</ele>
        <time>2019-08-15T10:08:47Z</time>
      </trkpt>
      <trkpt lat="44.2628" lon="6.19584">
        <ele>2101.52</ele>
        <time>2019-08-15T10:08:49Z</time>
      </trkpt>
      <trkpt lat="44.26279" lon="6.19587">
        <ele>2101.23</ele>
        <time>2019-08-15T10:08:51Z</time>
      </trkpt>
      <trkpt lat="44.26277" lon="6.19612">
        <ele>2097.9</ele>
        <time>2019-08-15T10:09:08Z</time>
      </trkpt>
      <trkpt lat="44.26277" lon="6.1963">
        <ele>2095.01</ele>
        <time>2019-08-15T10:09:22Z</time>
      </trkpt>
      <trkpt lat="44.26278" lon="6.19645">
        <ele>2092.21</ele>
        <time>2019-08-15T10:09:38Z</time>
      </trkpt>
      <trkpt lat="44.26276" lon="6.19659">
        <ele>2089.52</ele>
        <time>2019-08-15T10:09:53Z</time>
      </trkpt>
      <trkpt lat="44.26275" lon="6.19663">
        <ele>2088.89</ele>
        <time>2019-08-15T10:09:56Z</time>
      </trkpt>
      <trkpt lat="44.26276" lon="6.19674">
        <ele>2087.83</ele>
        <time>2019-08-15T10:10:04Z</time>
      </trkpt>
      <trkpt lat="44.26276" lon="6.19677">
        <ele>2087.68</ele>
        <time>2019-08-15T10:10:06Z</time>
      </trkpt>
      <trkpt lat="44.26274" lon="6.19701">
        <ele>2087.2</ele>
        <time>2019-08-15T10:10:23Z</time>
      </trkpt>
      <trkpt lat="44.26273" lon="6.19714">
        <ele>2087.35</ele>
        <time>2019-08-15T10:10:33Z</time>
      </trkpt>
      <trkpt lat="44.26273" lon="6.19734">
        <ele>2086.84</ele>
        <time>2019-08-15T10:10:47Z</time>
      </trkpt>
      <trkpt lat="44.26272" lon="6.19761">
        <ele>2087.3</ele>
        <time>2019-08-15T10:11:03Z</time>
      </trkpt>
      <trkpt lat="44.26271" lon="6.19773">
        <ele>2086.66</ele>
        <time>2019-08-15T10:11:18Z</time>
      </trkpt>
      <trkpt lat="44.26272" lon="6.19778">
        <ele>2086.33</ele>
        <time>2019-08-15T10:11:22Z</time>
      </trkpt>
      <trkpt lat="44.26269" lon="6.19808">
        <ele>2085.24</ele>
        <time>2019-08-15T10:11:42Z</time>
      </trkpt>
      <trkpt lat="44.26267" lon="6.19828">
        <ele>2083.63</ele>
        <time>2019-08-15T10:11:59Z</time>
      </trkpt>
      <trkpt lat="44.26267" lon="6.19836">
        <ele>2082.75</ele>
        <time>2019-08-15T10:12:05Z</time>
      </trkpt>
      <trkpt lat="44.26267" lon="6.19842">
        <ele>2082.19</ele>
        <time>2019-08-15T10:12:09Z</time>
      </trkpt>
      <trkpt lat="44.26266" lon="6.19853">
        <ele>2081.38</ele>
        <time>2019-08-15T10:12:16Z</time>
      </trkpt>
      <trkpt lat="44.2626" lon="6.19873">
        <ele>2078.92</ele>
        <time>2019-08-15T10:12:33Z</time>
      </trkpt>
      <trkpt lat="44.2626" lon="6.19879">
        <ele>2078.33</ele>
        <time>2019-08-15T10:12:37Z</time>
      </trkpt>
      <trkpt lat="44.26258" lon="6.19898">
        <ele>2076.23</ele>
        <time>2019-08-15T10:12:53Z</time>
      </trkpt>
      <trkpt lat="44.26257" lon="6.19923">
        <ele>2073.88</ele>
        <time>2019-08-15T10:13:11Z</time>
      </trkpt>
      <trkpt lat="44.26254" lon="6.19945">
        <ele>2071.75</ele>
        <time>2019-08-15T10:13:26Z</time>
      </trkpt>
      <trkpt lat="44.26251" lon="6.1996">
        <ele>2069.56</ele>
        <time>2019-08-15T10:13:41Z</time>
      </trkpt>
      <trkpt lat="44.26248" lon="6.19975">
        <ele>2066.5</ele>
        <time>2019-08-15T10:14:00Z</time>
      </trkpt>
      <trkpt lat="44.26249" lon="6.19974">
        <ele>2066.11</ele>
        <time>2019-08-15T10:14:23Z</time>
      </trkpt>
      <trkpt lat="44.26249" lon="6.19977">
        <ele>2066.13</ele>
        <time>2019-08-15T10:14:51Z</time>
      </trkpt>
      <trkpt lat="44.26249" lon="6.19977">
        <ele>2066.17</ele>
        <time>2019-08-15T10:15:24Z</time>
      </trkpt>
      <trkpt lat="44.26248" lon="6.19976">
        <ele>2066.08</ele>
        <time>2019-08-15T10:15:43Z</time>
      </trkpt>
      <trkpt lat="44.26249" lon="6.19976">
        <ele>2066.22</ele>
        <time>2019-08-15T10:16:11Z</time>
      </trkpt>
      <trkpt lat="44.26247" lon="6.19979">
        <ele>2065.79</ele>
        <time>2019-08-15T10:16:35Z</time>
      </trkpt>
      <trkpt lat="44.26244" lon="6.19991">
        <ele>2062.64</ele>
        <time>2019-08-15T10:16:54Z</time>
      </trkpt>
      <trkpt lat="44.26241" lon="6.20002">
        <ele>2059.48</ele>
        <time>2019-08-15T10:17:09Z</time>
      </trkpt>
      <trkpt lat="44.26239" lon="6.20017">
        <ele>2056.42</ele>
        <time>2019-08-15T10:17:22Z</time>
      </trkpt>
      <trkpt lat="44.26237" lon="6.20031">
        <ele>2053.67</ele>
        <time>2019-08-15T10:17:35Z</time>
      </trkpt>
      <trkpt lat="44.26235" lon="6.20042">
        <ele>2051.78</ele>
        <time>2019-08-15T10:17:44Z</time>
      </trkpt>
      <trkpt lat="44.26233" lon="6.20046">
        <ele>2051.3</ele>
        <time>2019-08-15T10:17:47Z</time>
      </trkpt>
      <trkpt lat="44.26231" lon="6.20065">
        <ele>2049.18</ele>
        <time>2019-08-15T10:18:01Z</time>
      </trkpt>
      <trkpt lat="44.26226" lon="6.20084">
        <ele>2046.25</ele>
        <time>2019-08-15T10:18:17Z</time>
      </trkpt>
      <trkpt lat="44.2622" lon="6.201">
        <ele>2043.16</ele>
        <time>2019-08-15T10:18:33Z</time>
      </trkpt>
      <trkpt lat="44.26216" lon="6.20118">
        <ele>2040.1</ele>
        <time>2019-08-15T10:18:50Z</time>
      </trkpt>
      <trkpt lat="44.2622" lon="6.2013">
        <ele>2038.98</ele>
        <time>2019-08-15T10:18:59Z</time>
      </trkpt>
      <trkpt lat="44.26216" lon="6.20148">
        <ele>2035.86</ele>
        <time>2019-08-15T10:19:17Z</time>
      </trkpt>
      <trkpt lat="44.26214" lon="6.20156">
        <ele>2034.34</ele>
        <time>2019-08-15T10:19:24Z</time>
      </trkpt>
      <trkpt lat="44.26207" lon="6.20175">
        <ele>2031.72</ele>
        <time>2019-08-15T10:19:40Z</time>
      </trkpt>
      <trkpt lat="44.26204" lon="6.20184">
        <ele>2030.12</ele>
        <time>2019-08-15T10:19:48Z</time>
      </trkpt>
      <trkpt lat="44.26195" lon="6.20197">
        <ele>2026.75</ele>
        <time>2019-08-15T10:20:04Z</time>
      </trkpt>
      <trkpt lat="44.26191" lon="6.20215">
        <ele>2023.86</ele>
        <time>2019-08-15T10:20:21Z</time>
      </trkpt>
      <trkpt lat="44.26183" lon="6.20241">
        <ele>2020.83</ele>
        <time>2019-08-15T10:20:43Z</time>
      </trkpt>
      <trkpt lat="44.26179" lon="6.20266">
        <ele>2018.61</ele>
        <time>2019-08-15T10:21:02Z</time>
      </trkpt>
      <trkpt lat="44.26171" lon="6.20298">
        <ele>2015.65</ele>
        <time>2019-08-15T10:21:25Z</time>
      </trkpt>
      <trkpt lat="44.26171" lon="6.20302">
        <ele>2015.28</ele>
        <time>2019-08-15T10:21:28Z</time>
      </trkpt>
      <trkpt lat="44.26169" lon="6.20324">
        <ele>2012.9</ele>
        <time>2019-08-15T10:21:45Z</time>
      </trkpt>
      <trkpt lat="44.26164" lon="6.20341">
        <ele>2010.68</ele>
        <time>2019-08-15T10:22:03Z</time>
      </trkpt>
      <trkpt lat="44.26164" lon="6.20342">
        <ele>2009.27</ele>
        <time>2019-08-15T10:22:32Z</time>
      </trkpt>
      <trkpt lat="44.26163" lon="6.20343">
        <ele>2009.39</ele>
        <time>2019-08-15T10:23:04Z</time>
      </trkpt>
      <trkpt lat="44.26164" lon="6.20342">
        <ele>2009.5</ele>
        <time>2019-08-15T10:24:08Z</time>
      </trkpt>
      <trkpt lat="44.26163" lon="6.20343">
        <ele>2009.66</ele>
        <time>2019-08-15T10:24:57Z</time>
      </trkpt>
      <trkpt lat="44.26164" lon="6.20341">
        <ele>2009.6</ele>
        <time>2019-08-15T10:25:35Z</time>
      </trkpt>
      <trkpt lat="44.26164" lon="6.20342">
        <ele>2008.7</ele>
        <time>2019-08-15T10:26:16Z</time>
      </trkpt>
      <trkpt lat="44.26163" lon="6.20342">
        <ele>2008.66</ele>
        <time>2019-08-15T10:27:03Z</time>
      </trkpt>
      <trkpt lat="44.26165" lon="6.20341">
        <ele>2008.65</ele>
        <time>2019-08-15T10:27:39Z</time>
      </trkpt>
      <trkpt lat="44.26164" lon="6.20342">
        <ele>2008.51</ele>
        <time>2019-08-15T10:28:58Z</time>
      </trkpt>
      <trkpt lat="44.26164" lon="6.20343">
        <ele>2008.26</ele>
        <time>2019-08-15T10:33:34Z</time>
      </trkpt>
      <trkpt lat="44.26164" lon="6.20343">
        <ele>2007.77</ele>
        <time>2019-08-15T10:40:44Z</time>
      </trkpt>
      <trkpt lat="44.26163" lon="6.20342">
        <ele>2007.71</ele>
        <time>2019-08-15T10:45:12Z</time>
      </trkpt>
      <trkpt lat="44.26163" lon="6.20342">
        <ele>2008.08</ele>
        <time>2019-08-15T10:48:44Z</time>
      </trkpt>
      <trkpt lat="44.26163" lon="6.20343">
        <ele>2008.37</ele>
        <time>2019-08-15T10:53:05Z</time>
      </trkpt>
      <trkpt lat="44.26162" lon="6.20343">
        <ele>2007.43</ele>
        <time>2019-08-15T10:53:38Z</time>
      </trkpt>
      <trkpt lat="44.26162" lon="6.20343">
        <ele>2007.41</ele>
        <time>2019-08-15T10:55:40Z</time>
      </trkpt>
      <trkpt lat="44.26163" lon="6.20342">
        <ele>2007.7</ele>
        <time>2019-08-15T11:00:25Z</time>
      </trkpt>
      <trkpt lat="44.26164" lon="6.20342">
        <ele>2007.58</ele>
        <time>2019-08-15T11:01:25Z</time>
      </trkpt>
      <trkpt lat="44.26164" lon="6.20342">
        <ele>2007.51</ele>
        <time>2019-08-15T11:02:13Z</time>
      </trkpt>
      <trkpt lat="44.26163" lon="6.20343">
        <ele>2007.28</ele>
        <time>2019-08-15T11:02:40Z</time>
      </trkpt>
      <trkpt lat="44.26162" lon="6.20343">
        <ele>2007.29</ele>
        <time>2019-08-15T11:03:40Z</time>
      </trkpt>
      <trkpt lat="44.26162" lon="6.20344">
        <ele>2006.94</ele>
        <time>2019-08-15T11:04:58Z</time>
      </trkpt>
      <trkpt lat="44.26163" lon="6.20343">
        <ele>2006.81</ele>
        <time>2019-08-15T11:06:12Z</time>
      </trkpt>
      <trkpt lat="44.26162" lon="6.20344">
        <ele>2006.84</ele>
        <time>2019-08-15T11:07:28Z</time>
      </trkpt>
      <trkpt lat="44.26163" lon="6.20343">
        <ele>2006.73</ele>
        <time>2019-08-15T11:08:26Z</time>
      </trkpt>
      <trkpt lat="44.26162" lon="6.20344">
        <ele>2006.51</ele>
        <time>2019-08-15T11:09:37Z</time>
      </trkpt>
      <trkpt lat="44.26162" lon="6.20344">
        <ele>2006.41</ele>
        <time>2019-08-15T11:10:57Z</time>
      </trkpt>
      <trkpt lat="44.26162" lon="6.20345">
        <ele>2005.94</ele>
        <time>2019-08-15T11:12:31Z</time>
      </trkpt>
      <trkpt lat="44.26162" lon="6.20344">
        <ele>2005.87</ele>
        <time>2019-08-15T11:13:59Z</time>
      </trkpt>
      <trkpt lat="44.26162" lon="6.20344">
        <ele>2006.23</ele>
        <time>2019-08-15T11:14:57Z</time>
      </trkpt>
      <trkpt lat="44.26161" lon="6.20344">
        <ele>2006</ele>
        <time>2019-08-15T11:16:07Z</time>
      </trkpt>
      <trkpt lat="44.26161" lon="6.20344">
        <ele>2005.38</ele>
        <time>2019-08-15T11:17:38Z</time>
      </trkpt>
      <trkpt lat="44.26162" lon="6.20343">
        <ele>2004.91</ele>
        <time>2019-08-15T11:18:58Z</time>
      </trkpt>
      <trkpt lat="44.26163" lon="6.20343">
        <ele>2004.66</ele>
        <time>2019-08-15T11:20:27Z</time>
      </trkpt>
      <trkpt lat="44.26163" lon="6.20343">
        <ele>2005.16</ele>
        <time>2019-08-15T11:22:14Z</time>
      </trkpt>
      <trkpt lat="44.26163" lon="6.20343">
        <ele>2004.58</ele>
        <time>2019-08-15T11:23:35Z</time>
      </trkpt>
      <trkpt lat="44.26162" lon="6.20342">
        <ele>2004.08</ele>
        <time>2019-08-15T11:24:52Z</time>
      </trkpt>
      <trkpt lat="44.26162" lon="6.20342">
        <ele>2003.95</ele>
        <time>2019-08-15T11:26:14Z</time>
      </trkpt>
      <trkpt lat="44.26163" lon="6.20343">
        <ele>2004.09</ele>
        <time>2019-08-15T11:27:33Z</time>
      </trkpt>
      <trkpt lat="44.26163" lon="6.20341">
        <ele>2004.26</ele>
        <time>2019-08-15T11:28:47Z</time>
      </trkpt>
      <trkpt lat="44.26162" lon="6.20342">
        <ele>2004.21</ele>
        <time>2019-08-15T11:29:24Z</time>
      </trkpt>
      <trkpt lat="44.26163" lon="6.20341">
        <ele>2003.85</ele>
        <time>2019-08-15T11:30:05Z</time>
      </trkpt>
      <trkpt lat="44.26163" lon="6.20339">
        <ele>2004.7</ele>
        <time>2019-08-15T11:30:28Z</time>
      </trkpt>
      <trkpt lat="44.26163" lon="6.2034">
        <ele>2004.24</ele>
        <time>2019-08-15T11:30:56Z</time>
      </trkpt>
      <trkpt lat="44.26169" lon="6.2034">
        <ele>2005.1</ele>
        <time>2019-08-15T11:31:11Z</time>
      </trkpt>
      <trkpt lat="44.26175" lon="6.20343">
        <ele>2006.95</ele>
        <time>2019-08-15T11:31:27Z</time>
      </trkpt>
      <trkpt lat="44.26176" lon="6.20339">
        <ele>2008.25</ele>
        <time>2019-08-15T11:31:45Z</time>
      </trkpt>
      <trkpt lat="44.26173" lon="6.20346">
        <ele>2007.45</ele>
        <time>2019-08-15T11:32:03Z</time>
      </trkpt>
      <trkpt lat="44.26167" lon="6.20353">
        <ele>2005.61</ele>
        <time>2019-08-15T11:32:20Z</time>
      </trkpt>
      <trkpt lat="44.26162" lon="6.20362">
        <ele>2004.21</ele>
        <time>2019-08-15T11:32:38Z</time>
      </trkpt>
      <trkpt lat="44.26158" lon="6.20371">
        <ele>2002.82</ele>
        <time>2019-08-15T11:33:28Z</time>
      </trkpt>
      <trkpt lat="44.26157" lon="6.20369">
        <ele>2002.46</ele>
        <time>2019-08-15T11:34:04Z</time>
      </trkpt>
      <trkpt lat="44.26161" lon="6.20625">
        <ele>2003.1</ele>
        <time>2019-08-15T11:45:55Z</time>
      </trkpt>
      <trkpt lat="44.26169" lon="6.20637">
        <ele>1999.96</ele>
        <time>2019-08-15T11:46:15Z</time>
      </trkpt>
      <trkpt lat="44.26174" lon="6.20647">
        <ele>1996.87</ele>
        <time>2019-08-15T11:46:36Z</time>
      </trkpt>
      <trkpt lat="44.26173" lon="6.20653">
        <ele>1993.74</ele>
        <time>2019-08-15T11:46:50Z</time>
      </trkpt>
      <trkpt lat="44.26169" lon="6.20658">
        <ele>1991.68</ele>
        <time>2019-08-15T11:47:11Z</time>
      </trkpt>
      <trkpt lat="44.26159" lon="6.20664">
        <ele>1988.93</ele>
        <time>2019-08-15T11:47:30Z</time>
      </trkpt>
      <trkpt lat="44.26157" lon="6.2067">
        <ele>1985.7</ele>
        <time>2019-08-15T11:47:46Z</time>
      </trkpt>
      <trkpt lat="44.26161" lon="6.20679">
        <ele>1982.56</ele>
        <time>2019-08-15T11:48:00Z</time>
      </trkpt>
      <trkpt lat="44.26168" lon="6.20689">
        <ele>1979.45</ele>
        <time>2019-08-15T11:48:13Z</time>
      </trkpt>
      <trkpt lat="44.26175" lon="6.207">
        <ele>1976.23</ele>
        <time>2019-08-15T11:48:28Z</time>
      </trkpt>
      <trkpt lat="44.2618" lon="6.20706">
        <ele>1973.18</ele>
        <time>2019-08-15T11:48:45Z</time>
      </trkpt>
      <trkpt lat="44.2618" lon="6.20716">
        <ele>1971.54</ele>
        <time>2019-08-15T11:49:02Z</time>
      </trkpt>
      <trkpt lat="44.26178" lon="6.20722">
        <ele>1968.27</ele>
        <time>2019-08-15T11:49:14Z</time>
      </trkpt>
      <trkpt lat="44.26171" lon="6.20728">
        <ele>1965.13</ele>
        <time>2019-08-15T11:49:28Z</time>
      </trkpt>
      <trkpt lat="44.26162" lon="6.20734">
        <ele>1961.97</ele>
        <time>2019-08-15T11:49:47Z</time>
      </trkpt>
      <trkpt lat="44.26157" lon="6.20737">
        <ele>1958.96</ele>
        <time>2019-08-15T11:49:59Z</time>
      </trkpt>
      <trkpt lat="44.2615" lon="6.20743">
        <ele>1955.75</ele>
        <time>2019-08-15T11:50:15Z</time>
      </trkpt>
      <trkpt lat="44.26146" lon="6.2075">
        <ele>1952.73</ele>
        <time>2019-08-15T11:50:29Z</time>
      </trkpt>
      <trkpt lat="44.26144" lon="6.20756">
        <ele>1949.53</ele>
        <time>2019-08-15T11:50:40Z</time>
      </trkpt>
      <trkpt lat="44.26141" lon="6.20762">
        <ele>1946.51</ele>
        <time>2019-08-15T11:50:54Z</time>
      </trkpt>
      <trkpt lat="44.26135" lon="6.20768">
        <ele>1943.34</ele>
        <time>2019-08-15T11:51:07Z</time>
      </trkpt>
      <trkpt lat="44.26129" lon="6.20776">
        <ele>1939.96</ele>
        <time>2019-08-15T11:51:23Z</time>
      </trkpt>
      <trkpt lat="44.2613" lon="6.20788">
        <ele>1936.85</ele>
        <time>2019-08-15T11:51:37Z</time>
      </trkpt>
      <trkpt lat="44.26133" lon="6.20802">
        <ele>1933.68</ele>
        <time>2019-08-15T11:51:52Z</time>
      </trkpt>
      <trkpt lat="44.26138" lon="6.2081">
        <ele>1930.67</ele>
        <time>2019-08-15T11:52:04Z</time>
      </trkpt>
      <trkpt lat="44.26147" lon="6.20815">
        <ele>1927.65</ele>
        <time>2019-08-15T11:52:21Z</time>
      </trkpt>
      <trkpt lat="44.26156" lon="6.20821">
        <ele>1924.53</ele>
        <time>2019-08-15T11:52:38Z</time>
      </trkpt>
      <trkpt lat="44.2616" lon="6.20831">
        <ele>1921.43</ele>
        <time>2019-08-15T11:52:53Z</time>
      </trkpt>
      <trkpt lat="44.26162" lon="6.20839">
        <ele>1918.26</ele>
        <time>2019-08-15T11:53:05Z</time>
      </trkpt>
      <trkpt lat="44.26165" lon="6.20849">
        <ele>1915.18</ele>
        <time>2019-08-15T11:53:18Z</time>
      </trkpt>
      <trkpt lat="44.2617" lon="6.20861">
        <ele>1911.99</ele>
        <time>2019-08-15T11:53:32Z</time>
      </trkpt>
      <trkpt lat="44.26173" lon="6.20873">
        <ele>1908.98</ele>
        <time>2019-08-15T11:53:47Z</time>
      </trkpt>
      <trkpt lat="44.26177" lon="6.20883">
        <ele>1905.84</ele>
        <time>2019-08-15T11:53:59Z</time>
      </trkpt>
      <trkpt lat="44.26179" lon="6.20882">
        <ele>1904.45</ele>
        <time>2019-08-15T11:54:22Z</time>
      </trkpt>
      <trkpt lat="44.26179" lon="6.20883">
        <ele>1904.46</ele>
        <time>2019-08-15T11:54:50Z</time>
      </trkpt>
      <trkpt lat="44.26178" lon="6.20885">
        <ele>1904.18</ele>
        <time>2019-08-15T11:55:14Z</time>
      </trkpt>
      <trkpt lat="44.26178" lon="6.20887">
        <ele>1904.56</ele>
        <time>2019-08-15T11:55:35Z</time>
      </trkpt>
      <trkpt lat="44.26177" lon="6.20903">
        <ele>1901.49</ele>
        <time>2019-08-15T11:55:53Z</time>
      </trkpt>
      <trkpt lat="44.26178" lon="6.20912">
        <ele>1898.43</ele>
        <time>2019-08-15T11:56:05Z</time>
      </trkpt>
      <trkpt lat="44.26178" lon="6.20922">
        <ele>1895.04</ele>
        <time>2019-08-15T11:56:19Z</time>
      </trkpt>
      <trkpt lat="44.26175" lon="6.20933">
        <ele>1891.77</ele>
        <time>2019-08-15T11:56:31Z</time>
      </trkpt>
      <trkpt lat="44.26174" lon="6.20942">
        <ele>1888.53</ele>
        <time>2019-08-15T11:56:43Z</time>
      </trkpt>
      <trkpt lat="44.26175" lon="6.2095">
        <ele>1885.5</ele>
        <time>2019-08-15T11:56:53Z</time>
      </trkpt>
      <trkpt lat="44.26181" lon="6.20955">
        <ele>1882.28</ele>
        <time>2019-08-15T11:57:06Z</time>
      </trkpt>
      <trkpt lat="44.2619" lon="6.20955">
        <ele>1879.1</ele>
        <time>2019-08-15T11:57:19Z</time>
      </trkpt>
      <trkpt lat="44.26195" lon="6.20955">
        <ele>1878.25</ele>
        <time>2019-08-15T11:57:24Z</time>
      </trkpt>
      <trkpt lat="44.26212" lon="6.20956">
        <ele>1875.96</ele>
        <time>2019-08-15T11:57:41Z</time>
      </trkpt>
      <trkpt lat="44.26231" lon="6.20955">
        <ele>1876.75</ele>
        <time>2019-08-15T11:58:00Z</time>
      </trkpt>
      <trkpt lat="44.26249" lon="6.20957">
        <ele>1876.54</ele>
        <time>2019-08-15T11:58:19Z</time>
      </trkpt>
      <trkpt lat="44.26254" lon="6.20955">
        <ele>1875.55</ele>
        <time>2019-08-15T11:58:26Z</time>
      </trkpt>
      <trkpt lat="44.26256" lon="6.20955">
        <ele>1875.38</ele>
        <time>2019-08-15T11:58:28Z</time>
      </trkpt>
      <trkpt lat="44.26272" lon="6.20954">
        <ele>1874.22</ele>
        <time>2019-08-15T11:58:45Z</time>
      </trkpt>
      <trkpt lat="44.26284" lon="6.20962">
        <ele>1874.5</ele>
        <time>2019-08-15T11:58:58Z</time>
      </trkpt>
      <trkpt lat="44.26295" lon="6.20968">
        <ele>1875.78</ele>
        <time>2019-08-15T11:59:12Z</time>
      </trkpt>
      <trkpt lat="44.26317" lon="6.20973">
        <ele>1873.66</ele>
        <time>2019-08-15T11:59:37Z</time>
      </trkpt>
      <trkpt lat="44.26332" lon="6.20974">
        <ele>1870.57</ele>
        <time>2019-08-15T11:59:53Z</time>
      </trkpt>
      <trkpt lat="44.26351" lon="6.20975">
        <ele>1868.71</ele>
        <time>2019-08-15T12:00:14Z</time>
      </trkpt>
      <trkpt lat="44.26367" lon="6.20974">
        <ele>1867.91</ele>
        <time>2019-08-15T12:00:30Z</time>
      </trkpt>
      <trkpt lat="44.26387" lon="6.20974">
        <ele>1867.59</ele>
        <time>2019-08-15T12:00:49Z</time>
      </trkpt>
      <trkpt lat="44.26404" lon="6.20973">
        <ele>1867.07</ele>
        <time>2019-08-15T12:01:07Z</time>
      </trkpt>
      <trkpt lat="44.26407" lon="6.20972">
        <ele>1866.76</ele>
        <time>2019-08-15T12:01:11Z</time>
      </trkpt>
      <trkpt lat="44.26424" lon="6.20972">
        <ele>1864.36</ele>
        <time>2019-08-15T12:01:30Z</time>
      </trkpt>
      <trkpt lat="44.26444" lon="6.20976">
        <ele>1861.96</ele>
        <time>2019-08-15T12:01:50Z</time>
      </trkpt>
      <trkpt lat="44.26467" lon="6.20976">
        <ele>1860.35</ele>
        <time>2019-08-15T12:02:12Z</time>
      </trkpt>
      <trkpt lat="44.26471" lon="6.20976">
        <ele>1859.75</ele>
        <time>2019-08-15T12:02:17Z</time>
      </trkpt>
      <trkpt lat="44.26476" lon="6.20977">
        <ele>1858.33</ele>
        <time>2019-08-15T12:02:27Z</time>
      </trkpt>
      <trkpt lat="44.26491" lon="6.20977">
        <ele>1857.13</ele>
        <time>2019-08-15T12:02:42Z</time>
      </trkpt>
      <trkpt lat="44.26508" lon="6.20979">
        <ele>1854.4</ele>
        <time>2019-08-15T12:03:01Z</time>
      </trkpt>
      <trkpt lat="44.26529" lon="6.20982">
        <ele>1852.69</ele>
        <time>2019-08-15T12:03:22Z</time>
      </trkpt>
      <trkpt lat="44.26541" lon="6.20982">
        <ele>1850.71</ele>
        <time>2019-08-15T12:03:41Z</time>
      </trkpt>
      <trkpt lat="44.2655" lon="6.20985">
        <ele>1850.3</ele>
        <time>2019-08-15T12:03:57Z</time>
      </trkpt>
      <trkpt lat="44.26566" lon="6.20979">
        <ele>1848.85</ele>
        <time>2019-08-15T12:04:15Z</time>
      </trkpt>
      <trkpt lat="44.26585" lon="6.20983">
        <ele>1847.77</ele>
        <time>2019-08-15T12:04:35Z</time>
      </trkpt>
      <trkpt lat="44.266" lon="6.20988">
        <ele>1846.75</ele>
        <time>2019-08-15T12:04:52Z</time>
      </trkpt>
      <trkpt lat="44.26617" lon="6.20992">
        <ele>1845.34</ele>
        <time>2019-08-15T12:05:10Z</time>
      </trkpt>
      <trkpt lat="44.26637" lon="6.20998">
        <ele>1842.32</ele>
        <time>2019-08-15T12:05:32Z</time>
      </trkpt>
      <trkpt lat="44.26649" lon="6.21005">
        <ele>1839.93</ele>
        <time>2019-08-15T12:05:48Z</time>
      </trkpt>
      <trkpt lat="44.26665" lon="6.21016">
        <ele>1837.87</ele>
        <time>2019-08-15T12:06:11Z</time>
      </trkpt>
      <trkpt lat="44.26682" lon="6.21022">
        <ele>1837.33</ele>
        <time>2019-08-15T12:06:30Z</time>
      </trkpt>
      <trkpt lat="44.26698" lon="6.21034">
        <ele>1835.42</ele>
        <time>2019-08-15T12:06:51Z</time>
      </trkpt>
      <trkpt lat="44.26715" lon="6.21042">
        <ele>1833.69</ele>
        <time>2019-08-15T12:07:09Z</time>
      </trkpt>
      <trkpt lat="44.26729" lon="6.21047">
        <ele>1835.18</ele>
        <time>2019-08-15T12:07:28Z</time>
      </trkpt>
      <trkpt lat="44.26744" lon="6.21058">
        <ele>1837.41</ele>
        <time>2019-08-15T12:07:48Z</time>
      </trkpt>
      <trkpt lat="44.26763" lon="6.21061">
        <ele>1838.18</ele>
        <time>2019-08-15T12:08:12Z</time>
      </trkpt>
      <trkpt lat="44.26775" lon="6.21057">
        <ele>1837.42</ele>
        <time>2019-08-15T12:08:30Z</time>
      </trkpt>
      <trkpt lat="44.26776" lon="6.21057">
        <ele>1837.36</ele>
        <time>2019-08-15T12:08:31Z</time>
      </trkpt>
      <trkpt lat="44.26789" lon="6.2105">
        <ele>1836.16</ele>
        <time>2019-08-15T12:08:49Z</time>
      </trkpt>
      <trkpt lat="44.26792" lon="6.21049">
        <ele>1835.72</ele>
        <time>2019-08-15T12:08:53Z</time>
      </trkpt>
      <trkpt lat="44.26808" lon="6.21044">
        <ele>1832.79</ele>
        <time>2019-08-15T12:09:13Z</time>
      </trkpt>
      <trkpt lat="44.26811" lon="6.21042">
        <ele>1832.45</ele>
        <time>2019-08-15T12:09:17Z</time>
      </trkpt>
      <trkpt lat="44.26824" lon="6.21033">
        <ele>1829.86</ele>
        <time>2019-08-15T12:09:37Z</time>
      </trkpt>
      <trkpt lat="44.26834" lon="6.21019">
        <ele>1828.18</ele>
        <time>2019-08-15T12:09:54Z</time>
      </trkpt>
      <trkpt lat="44.26845" lon="6.20998">
        <ele>1826.13</ele>
        <time>2019-08-15T12:10:13Z</time>
      </trkpt>
      <trkpt lat="44.26856" lon="6.20984">
        <ele>1823.46</ele>
        <time>2019-08-15T12:10:31Z</time>
      </trkpt>
      <trkpt lat="44.26869" lon="6.2097">
        <ele>1821.97</ele>
        <time>2019-08-15T12:10:48Z</time>
      </trkpt>
      <trkpt lat="44.26883" lon="6.20957">
        <ele>1820.29</ele>
        <time>2019-08-15T12:11:05Z</time>
      </trkpt>
      <trkpt lat="44.26897" lon="6.20944">
        <ele>1817.03</ele>
        <time>2019-08-15T12:11:23Z</time>
      </trkpt>
      <trkpt lat="44.26903" lon="6.20938">
        <ele>1815.43</ele>
        <time>2019-08-15T12:11:31Z</time>
      </trkpt>
      <trkpt lat="44.26919" lon="6.20929">
        <ele>1812.29</ele>
        <time>2019-08-15T12:11:50Z</time>
      </trkpt>
      <trkpt lat="44.2693" lon="6.20924">
        <ele>1809.61</ele>
        <time>2019-08-15T12:12:03Z</time>
      </trkpt>
      <trkpt lat="44.26942" lon="6.20919">
        <ele>1806.32</ele>
        <time>2019-08-15T12:12:18Z</time>
      </trkpt>
      <trkpt lat="44.26951" lon="6.20918">
        <ele>1803.31</ele>
        <time>2019-08-15T12:12:29Z</time>
      </trkpt>
      <trkpt lat="44.26958" lon="6.20914">
        <ele>1801.49</ele>
        <time>2019-08-15T12:12:38Z</time>
      </trkpt>
      <trkpt lat="44.2697" lon="6.20914">
        <ele>1798.1</ele>
        <time>2019-08-15T12:12:53Z</time>
      </trkpt>
      <trkpt lat="44.26979" lon="6.20911">
        <ele>1795.05</ele>
        <time>2019-08-15T12:13:05Z</time>
      </trkpt>
      <trkpt lat="44.26991" lon="6.20906">
        <ele>1792.01</ele>
        <time>2019-08-15T12:13:21Z</time>
      </trkpt>
      <trkpt lat="44.27" lon="6.20905">
        <ele>1788.9</ele>
        <time>2019-08-15T12:13:33Z</time>
      </trkpt>
      <trkpt lat="44.27008" lon="6.20903">
        <ele>1785.64</ele>
        <time>2019-08-15T12:13:43Z</time>
      </trkpt>
      <trkpt lat="44.27015" lon="6.20899">
        <ele>1782.95</ele>
        <time>2019-08-15T12:13:59Z</time>
      </trkpt>
      <trkpt lat="44.27025" lon="6.20898">
        <ele>1779.72</ele>
        <time>2019-08-15T12:14:16Z</time>
      </trkpt>
      <trkpt lat="44.27034" lon="6.20897">
        <ele>1776.57</ele>
        <time>2019-08-15T12:14:30Z</time>
      </trkpt>
      <trkpt lat="44.27041" lon="6.20895">
        <ele>1773.43</ele>
        <time>2019-08-15T12:14:43Z</time>
      </trkpt>
      <trkpt lat="44.27048" lon="6.20893">
        <ele>1770.25</ele>
        <time>2019-08-15T12:14:56Z</time>
      </trkpt>
      <trkpt lat="44.27058" lon="6.20888">
        <ele>1767.14</ele>
        <time>2019-08-15T12:15:12Z</time>
      </trkpt>
      <trkpt lat="44.27067" lon="6.20886">
        <ele>1764</ele>
        <time>2019-08-15T12:15:25Z</time>
      </trkpt>
      <trkpt lat="44.27074" lon="6.20885">
        <ele>1760.97</ele>
        <time>2019-08-15T12:15:36Z</time>
      </trkpt>
      <trkpt lat="44.27081" lon="6.20884">
        <ele>1757.77</ele>
        <time>2019-08-15T12:15:48Z</time>
      </trkpt>
      <trkpt lat="44.27088" lon="6.20882">
        <ele>1754.63</ele>
        <time>2019-08-15T12:16:00Z</time>
      </trkpt>
      <trkpt lat="44.27095" lon="6.20881">
        <ele>1751.27</ele>
        <time>2019-08-15T12:16:11Z</time>
      </trkpt>
      <trkpt lat="44.27103" lon="6.20881">
        <ele>1748.17</ele>
        <time>2019-08-15T12:16:23Z</time>
      </trkpt>
      <trkpt lat="44.27112" lon="6.20881">
        <ele>1745.03</ele>
        <time>2019-08-15T12:16:36Z</time>
      </trkpt>
      <trkpt lat="44.27117" lon="6.20875">
        <ele>1741.89</ele>
        <time>2019-08-15T12:16:48Z</time>
      </trkpt>
      <trkpt lat="44.27122" lon="6.20869">
        <ele>1738.65</ele>
        <time>2019-08-15T12:16:59Z</time>
      </trkpt>
      <trkpt lat="44.27128" lon="6.20865">
        <ele>1735.47</ele>
        <time>2019-08-15T12:17:09Z</time>
      </trkpt>
      <trkpt lat="44.27136" lon="6.20863">
        <ele>1732.39</ele>
        <time>2019-08-15T12:17:20Z</time>
      </trkpt>
      <trkpt lat="44.27143" lon="6.2086">
        <ele>1729.21</ele>
        <time>2019-08-15T12:17:32Z</time>
      </trkpt>
      <trkpt lat="44.2715" lon="6.20854">
        <ele>1726.03</ele>
        <time>2019-08-15T12:17:46Z</time>
      </trkpt>
      <trkpt lat="44.27156" lon="6.20848">
        <ele>1722.84</ele>
        <time>2019-08-15T12:17:57Z</time>
      </trkpt>
      <trkpt lat="44.27163" lon="6.20844">
        <ele>1719.79</ele>
        <time>2019-08-15T12:18:09Z</time>
      </trkpt>
      <trkpt lat="44.27167" lon="6.20841">
        <ele>1717.47</ele>
        <time>2019-08-15T12:18:16Z</time>
      </trkpt>
      <trkpt lat="44.27171" lon="6.20836">
        <ele>1714.29</ele>
        <time>2019-08-15T12:18:27Z</time>
      </trkpt>
      <trkpt lat="44.27174" lon="6.20835">
        <ele>1711.18</ele>
        <time>2019-08-15T12:18:39Z</time>
      </trkpt>
      <trkpt lat="44.27181" lon="6.20831">
        <ele>1708.49</ele>
        <time>2019-08-15T12:18:59Z</time>
      </trkpt>
      <trkpt lat="44.27185" lon="6.20825">
        <ele>1705.41</ele>
        <time>2019-08-15T12:19:13Z</time>
      </trkpt>
      <trkpt lat="44.27189" lon="6.20822">
        <ele>1702.16</ele>
        <time>2019-08-15T12:19:23Z</time>
      </trkpt>
      <trkpt lat="44.27195" lon="6.20818">
        <ele>1698.95</ele>
        <time>2019-08-15T12:19:34Z</time>
      </trkpt>
      <trkpt lat="44.272" lon="6.20814">
        <ele>1695.89</ele>
        <time>2019-08-15T12:19:46Z</time>
      </trkpt>
      <trkpt lat="44.27205" lon="6.20806">
        <ele>1692.82</ele>
        <time>2019-08-15T12:19:57Z</time>
      </trkpt>
      <trkpt lat="44.2721" lon="6.20798">
        <ele>1689.66</ele>
        <time>2019-08-15T12:20:09Z</time>
      </trkpt>
      <trkpt lat="44.27216" lon="6.20792">
        <ele>1686.62</ele>
        <time>2019-08-15T12:20:19Z</time>
      </trkpt>
      <trkpt lat="44.27224" lon="6.20786">
        <ele>1683.4</ele>
        <time>2019-08-15T12:20:32Z</time>
      </trkpt>
      <trkpt lat="44.2723" lon="6.20786">
        <ele>1681.74</ele>
        <time>2019-08-15T12:20:39Z</time>
      </trkpt>
      <trkpt lat="44.27246" lon="6.20779">
        <ele>1678.48</ele>
        <time>2019-08-15T12:20:57Z</time>
      </trkpt>
      <trkpt lat="44.27258" lon="6.20769">
        <ele>1675.56</ele>
        <time>2019-08-15T12:21:12Z</time>
      </trkpt>
      <trkpt lat="44.27269" lon="6.20761">
        <ele>1672.66</ele>
        <time>2019-08-15T12:21:27Z</time>
      </trkpt>
      <trkpt lat="44.27269" lon="6.2076">
        <ele>1672.47</ele>
        <time>2019-08-15T12:21:28Z</time>
      </trkpt>
      <trkpt lat="44.27279" lon="6.20755">
        <ele>1669.15</ele>
        <time>2019-08-15T12:21:42Z</time>
      </trkpt>
      <trkpt lat="44.27285" lon="6.20749">
        <ele>1666.15</ele>
        <time>2019-08-15T12:21:53Z</time>
      </trkpt>
      <trkpt lat="44.2729" lon="6.20743">
        <ele>1663.13</ele>
        <time>2019-08-15T12:22:03Z</time>
      </trkpt>
      <trkpt lat="44.27299" lon="6.20733">
        <ele>1660.04</ele>
        <time>2019-08-15T12:22:15Z</time>
      </trkpt>
      <trkpt lat="44.27299" lon="6.20732">
        <ele>1659.79</ele>
        <time>2019-08-15T12:22:16Z</time>
      </trkpt>
      <trkpt lat="44.27316" lon="6.20722">
        <ele>1656.51</ele>
        <time>2019-08-15T12:22:34Z</time>
      </trkpt>
      <trkpt lat="44.27331" lon="6.20713">
        <ele>1654.03</ele>
        <time>2019-08-15T12:22:51Z</time>
      </trkpt>
      <trkpt lat="44.27341" lon="6.20706">
        <ele>1653</ele>
        <time>2019-08-15T12:23:07Z</time>
      </trkpt>
      <trkpt lat="44.27341" lon="6.20704">
        <ele>1651.72</ele>
        <time>2019-08-15T12:23:40Z</time>
      </trkpt>
      <trkpt lat="44.2734" lon="6.20705">
        <ele>1650.9</ele>
        <time>2019-08-15T12:24:43Z</time>
      </trkpt>
      <trkpt lat="44.2734" lon="6.20704">
        <ele>1650.14</ele>
        <time>2019-08-15T12:26:55Z</time>
      </trkpt>
      <trkpt lat="44.2734" lon="6.20704">
        <ele>1649.73</ele>
        <time>2019-08-15T12:28:58Z</time>
      </trkpt>
      <trkpt lat="44.2734" lon="6.20705">
        <ele>1649.19</ele>
        <time>2019-08-15T12:30:01Z</time>
      </trkpt>
      <trkpt lat="44.27339" lon="6.20705">
        <ele>1649.07</ele>
        <time>2019-08-15T12:31:15Z</time>
      </trkpt>
      <trkpt lat="44.2734" lon="6.20705">
        <ele>1649.04</ele>
        <time>2019-08-15T12:32:48Z</time>
      </trkpt>
      <trkpt lat="44.2734" lon="6.20705">
        <ele>1648.42</ele>
        <time>2019-08-15T12:34:31Z</time>
      </trkpt>
      <trkpt lat="44.2734" lon="6.20705">
        <ele>1648.48</ele>
        <time>2019-08-15T12:35:35Z</time>
      </trkpt>
      <trkpt lat="44.27339" lon="6.20704">
        <ele>1648.25</ele>
        <time>2019-08-15T12:37:19Z</time>
      </trkpt>
      <trkpt lat="44.27338" lon="6.20703">
        <ele>1648.19</ele>
        <time>2019-08-15T12:39:26Z</time>
      </trkpt>
      <trkpt lat="44.27339" lon="6.20704">
        <ele>1648.06</ele>
        <time>2019-08-15T12:41:30Z</time>
      </trkpt>
      <trkpt lat="44.27339" lon="6.20702">
        <ele>1647.55</ele>
        <time>2019-08-15T12:45:00Z</time>
      </trkpt>
      <trkpt lat="44.27341" lon="6.20702">
        <ele>1647.66</ele>
        <time>2019-08-15T12:45:29Z</time>
      </trkpt>
      <trkpt lat="44.27343" lon="6.20698">
        <ele>1648.62</ele>
        <time>2019-08-15T12:45:49Z</time>
      </trkpt>
      <trkpt lat="44.27347" lon="6.20691">
        <ele>1648.08</ele>
        <time>2019-08-15T12:46:01Z</time>
      </trkpt>
      <trkpt lat="44.27351" lon="6.20689">
        <ele>1647.89</ele>
        <time>2019-08-15T12:46:06Z</time>
      </trkpt>
      <trkpt lat="44.27369" lon="6.20693">
        <ele>1645.42</ele>
        <time>2019-08-15T12:46:26Z</time>
      </trkpt>
      <trkpt lat="44.2738" lon="6.20695">
        <ele>1642.78</ele>
        <time>2019-08-15T12:46:44Z</time>
      </trkpt>
      <trkpt lat="44.27383" lon="6.20695">
        <ele>1640.32</ele>
        <time>2019-08-15T12:47:02Z</time>
      </trkpt>
      <trkpt lat="44.27394" lon="6.20693">
        <ele>1638.55</ele>
        <time>2019-08-15T12:47:21Z</time>
      </trkpt>
      <trkpt lat="44.27409" lon="6.20689">
        <ele>1636.13</ele>
        <time>2019-08-15T12:47:38Z</time>
      </trkpt>
      <trkpt lat="44.27418" lon="6.20684">
        <ele>1633.59</ele>
        <time>2019-08-15T12:47:50Z</time>
      </trkpt>
      <trkpt lat="44.27421" lon="6.2068">
        <ele>1632.76</ele>
        <time>2019-08-15T12:47:56Z</time>
      </trkpt>
      <trkpt lat="44.27423" lon="6.2068">
        <ele>1632.8</ele>
        <time>2019-08-15T12:47:58Z</time>
      </trkpt>
      <trkpt lat="44.2744" lon="6.20678">
        <ele>1632.52</ele>
        <time>2019-08-15T12:48:15Z</time>
      </trkpt>
      <trkpt lat="44.27458" lon="6.20675">
        <ele>1631.16</ele>
        <time>2019-08-15T12:48:33Z</time>
      </trkpt>
      <trkpt lat="44.27477" lon="6.20669">
        <ele>1630.59</ele>
        <time>2019-08-15T12:48:52Z</time>
      </trkpt>
      <trkpt lat="44.27493" lon="6.2066">
        <ele>1628.89</ele>
        <time>2019-08-15T12:49:08Z</time>
      </trkpt>
      <trkpt lat="44.27506" lon="6.20642">
        <ele>1626.56</ele>
        <time>2019-08-15T12:49:27Z</time>
      </trkpt>
      <trkpt lat="44.27513" lon="6.2063">
        <ele>1624.11</ele>
        <time>2019-08-15T12:49:38Z</time>
      </trkpt>
      <trkpt lat="44.27533" lon="6.20619">
        <ele>1624.09</ele>
        <time>2019-08-15T12:49:57Z</time>
      </trkpt>
      <trkpt lat="44.27546" lon="6.20601">
        <ele>1623.49</ele>
        <time>2019-08-15T12:50:13Z</time>
      </trkpt>
      <trkpt lat="44.27557" lon="6.20576">
        <ele>1621.45</ele>
        <time>2019-08-15T12:50:32Z</time>
      </trkpt>
      <trkpt lat="44.27568" lon="6.20552">
        <ele>1619.99</ele>
        <time>2019-08-15T12:50:53Z</time>
      </trkpt>
      <trkpt lat="44.27577" lon="6.20529">
        <ele>1617.54</ele>
        <time>2019-08-15T12:51:11Z</time>
      </trkpt>
      <trkpt lat="44.27589" lon="6.20509">
        <ele>1615.57</ele>
        <time>2019-08-15T12:51:30Z</time>
      </trkpt>
      <trkpt lat="44.27593" lon="6.20489">
        <ele>1614.1</ele>
        <time>2019-08-15T12:51:44Z</time>
      </trkpt>
      <trkpt lat="44.27594" lon="6.20479">
        <ele>1612.78</ele>
        <time>2019-08-15T12:51:51Z</time>
      </trkpt>
      <trkpt lat="44.2761" lon="6.2046">
        <ele>1611.71</ele>
        <time>2019-08-15T12:52:10Z</time>
      </trkpt>
      <trkpt lat="44.27621" lon="6.20439">
        <ele>1610.47</ele>
        <time>2019-08-15T12:52:29Z</time>
      </trkpt>
      <trkpt lat="44.27635" lon="6.20418">
        <ele>1609.04</ele>
        <time>2019-08-15T12:52:48Z</time>
      </trkpt>
      <trkpt lat="44.27651" lon="6.204">
        <ele>1607.23</ele>
        <time>2019-08-15T12:53:08Z</time>
      </trkpt>
      <trkpt lat="44.27655" lon="6.20385">
        <ele>1606.39</ele>
        <time>2019-08-15T12:53:20Z</time>
      </trkpt>
      <trkpt lat="44.2767" lon="6.20365">
        <ele>1605.21</ele>
        <time>2019-08-15T12:53:39Z</time>
      </trkpt>
      <trkpt lat="44.27684" lon="6.20344">
        <ele>1603.73</ele>
        <time>2019-08-15T12:53:57Z</time>
      </trkpt>
      <trkpt lat="44.27695" lon="6.20327">
        <ele>1603.3</ele>
        <time>2019-08-15T12:54:16Z</time>
      </trkpt>
      <trkpt lat="44.27696" lon="6.20325">
        <ele>1603.02</ele>
        <time>2019-08-15T12:54:26Z</time>
      </trkpt>
      <trkpt lat="44.27709" lon="6.20305">
        <ele>1602.67</ele>
        <time>2019-08-15T12:54:44Z</time>
      </trkpt>
      <trkpt lat="44.27718" lon="6.20283">
        <ele>1601.28</ele>
        <time>2019-08-15T12:55:02Z</time>
      </trkpt>
      <trkpt lat="44.27725" lon="6.20254">
        <ele>1599.38</ele>
        <time>2019-08-15T12:55:21Z</time>
      </trkpt>
      <trkpt lat="44.27731" lon="6.20221">
        <ele>1598.76</ele>
        <time>2019-08-15T12:55:42Z</time>
      </trkpt>
      <trkpt lat="44.27734" lon="6.20189">
        <ele>1597.01</ele>
        <time>2019-08-15T12:56:03Z</time>
      </trkpt>
      <trkpt lat="44.27742" lon="6.20163">
        <ele>1595.83</ele>
        <time>2019-08-15T12:56:22Z</time>
      </trkpt>
      <trkpt lat="44.27746" lon="6.20156">
        <ele>1595.24</ele>
        <time>2019-08-15T12:56:29Z</time>
      </trkpt>
      <trkpt lat="44.2775" lon="6.20149">
        <ele>1594.56</ele>
        <time>2019-08-15T12:56:38Z</time>
      </trkpt>
      <trkpt lat="44.27753" lon="6.20142">
        <ele>1594.39</ele>
        <time>2019-08-15T12:56:45Z</time>
      </trkpt>
      <trkpt lat="44.27756" lon="6.20138">
        <ele>1594.41</ele>
        <time>2019-08-15T12:56:49Z</time>
      </trkpt>
      <trkpt lat="44.27763" lon="6.2012">
        <ele>1594.32</ele>
        <time>2019-08-15T12:57:06Z</time>
      </trkpt>
      <trkpt lat="44.27765" lon="6.20115">
        <ele>1594.32</ele>
        <time>2019-08-15T12:57:10Z</time>
      </trkpt>
      <trkpt lat="44.2777" lon="6.20086">
        <ele>1594.13</ele>
        <time>2019-08-15T12:57:30Z</time>
      </trkpt>
      <trkpt lat="44.2777" lon="6.20076">
        <ele>1594.04</ele>
        <time>2019-08-15T12:57:37Z</time>
      </trkpt>
      <trkpt lat="44.27763" lon="6.20052">
        <ele>1592.61</ele>
        <time>2019-08-15T12:57:56Z</time>
      </trkpt>
      <trkpt lat="44.27763" lon="6.20052">
        <ele>1592.53</ele>
        <time>2019-08-15T12:57:57Z</time>
      </trkpt>
      <trkpt lat="44.27746" lon="6.20028">
        <ele>1590.77</ele>
        <time>2019-08-15T12:58:21Z</time>
      </trkpt>
      <trkpt lat="44.27745" lon="6.19994">
        <ele>1590.45</ele>
        <time>2019-08-15T12:58:43Z</time>
      </trkpt>
      <trkpt lat="44.27745" lon="6.19971">
        <ele>1590.52</ele>
        <time>2019-08-15T12:58:59Z</time>
      </trkpt>
      <trkpt lat="44.27743" lon="6.19943">
        <ele>1589.78</ele>
        <time>2019-08-15T12:59:20Z</time>
      </trkpt>
      <trkpt lat="44.27753" lon="6.19944">
        <ele>1589.95</ele>
        <time>2019-08-15T12:59:37Z</time>
      </trkpt>
      <trkpt lat="44.27764" lon="6.19943">
        <ele>1590.48</ele>
        <time>2019-08-15T12:59:51Z</time>
      </trkpt>
      <trkpt lat="44.27782" lon="6.19944">
        <ele>1592.25</ele>
        <time>2019-08-15T13:00:09Z</time>
      </trkpt>
      <trkpt lat="44.27794" lon="6.19938">
        <ele>1594.3</ele>
        <time>2019-08-15T13:00:27Z</time>
      </trkpt>
      <trkpt lat="44.27804" lon="6.19923">
        <ele>1596.13</ele>
        <time>2019-08-15T13:00:46Z</time>
      </trkpt>
      <trkpt lat="44.27815" lon="6.19909">
        <ele>1597.44</ele>
        <time>2019-08-15T13:01:06Z</time>
      </trkpt>
      <trkpt lat="44.27826" lon="6.19891">
        <ele>1596.9</ele>
        <time>2019-08-15T13:01:24Z</time>
      </trkpt>
      <trkpt lat="44.27835" lon="6.19872">
        <ele>1598.03</ele>
        <time>2019-08-15T13:01:42Z</time>
      </trkpt>
      <trkpt lat="44.27846" lon="6.19852">
        <ele>1599.88</ele>
        <time>2019-08-15T13:02:05Z</time>
      </trkpt>
      <trkpt lat="44.27857" lon="6.19823">
        <ele>1600.99</ele>
        <time>2019-08-15T13:02:23Z</time>
      </trkpt>
      <trkpt lat="44.2787" lon="6.19799">
        <ele>1601.93</ele>
        <time>2019-08-15T13:02:44Z</time>
      </trkpt>
      <trkpt lat="44.27874" lon="6.19774">
        <ele>1600.74</ele>
        <time>2019-08-15T13:03:03Z</time>
      </trkpt>
      <trkpt lat="44.2787" lon="6.19753">
        <ele>1600.17</ele>
        <time>2019-08-15T13:03:20Z</time>
      </trkpt>
      <trkpt lat="44.27866" lon="6.19734">
        <ele>1599.21</ele>
        <time>2019-08-15T13:03:38Z</time>
      </trkpt>
      <trkpt lat="44.27858" lon="6.19712">
        <ele>1597.26</ele>
        <time>2019-08-15T13:03:59Z</time>
      </trkpt>
      <trkpt lat="44.27842" lon="6.19687">
        <ele>1597.32</ele>
        <time>2019-08-15T13:04:18Z</time>
      </trkpt>
      <trkpt lat="44.27832" lon="6.19665">
        <ele>1598.1</ele>
        <time>2019-08-15T13:04:36Z</time>
      </trkpt>
      <trkpt lat="44.27827" lon="6.19641">
        <ele>1599.44</ele>
        <time>2019-08-15T13:04:56Z</time>
      </trkpt>
      <trkpt lat="44.27826" lon="6.19619">
        <ele>1600.15</ele>
        <time>2019-08-15T13:05:17Z</time>
      </trkpt>
      <trkpt lat="44.27835" lon="6.19594">
        <ele>1601.94</ele>
        <time>2019-08-15T13:05:36Z</time>
      </trkpt>
      <trkpt lat="44.27846" lon="6.19572">
        <ele>1603.88</ele>
        <time>2019-08-15T13:05:55Z</time>
      </trkpt>
      <trkpt lat="44.2785" lon="6.19547">
        <ele>1604.78</ele>
        <time>2019-08-15T13:06:15Z</time>
      </trkpt>
      <trkpt lat="44.27857" lon="6.19526">
        <ele>1606.25</ele>
        <time>2019-08-15T13:06:32Z</time>
      </trkpt>
      <trkpt lat="44.27867" lon="6.19501">
        <ele>1607.51</ele>
        <time>2019-08-15T13:06:51Z</time>
      </trkpt>
      <trkpt lat="44.27868" lon="6.19498">
        <ele>1607.58</ele>
        <time>2019-08-15T13:06:53Z</time>
      </trkpt>
      <trkpt lat="44.27869" lon="6.19494">
        <ele>1607.66</ele>
        <time>2019-08-15T13:06:56Z</time>
      </trkpt>
      <trkpt lat="44.27874" lon="6.19484">
        <ele>1607.89</ele>
        <time>2019-08-15T13:07:23Z</time>
      </trkpt>
      <trkpt lat="44.27875" lon="6.19487">
        <ele>1607.79</ele>
        <time>2019-08-15T13:07:45Z</time>
      </trkpt>
      <trkpt lat="44.27877" lon="6.19486">
        <ele>1607.67</ele>
        <time>2019-08-15T13:08:15Z</time>
      </trkpt>
      <trkpt lat="44.27877" lon="6.19485">
        <ele>1608.48</ele>
        <time>2019-08-15T13:08:48Z</time>
      </trkpt>
      <trkpt lat="44.27878" lon="6.19486">
        <ele>1608.06</ele>
        <time>2019-08-15T13:09:14Z</time>
      </trkpt>
      <trkpt lat="44.27878" lon="6.19484">
        <ele>1607.89</ele>
        <time>2019-08-15T13:09:40Z</time>
      </trkpt>
      <trkpt lat="44.27875" lon="6.1947">
        <ele>1608.15</ele>
        <time>2019-08-15T13:10:00Z</time>
      </trkpt>
      <trkpt lat="44.27878" lon="6.19448">
        <ele>1608.21</ele>
        <time>2019-08-15T13:10:22Z</time>
      </trkpt>
      <trkpt lat="44.27879" lon="6.19428">
        <ele>1608.35</ele>
        <time>2019-08-15T13:10:42Z</time>
      </trkpt>
      <trkpt lat="44.27889" lon="6.19402">
        <ele>1607.38</ele>
        <time>2019-08-15T13:11:03Z</time>
      </trkpt>
      <trkpt lat="44.27902" lon="6.19373">
        <ele>1606.77</ele>
        <time>2019-08-15T13:11:26Z</time>
      </trkpt>
      <trkpt lat="44.27914" lon="6.19349">
        <ele>1606.51</ele>
        <time>2019-08-15T13:11:48Z</time>
      </trkpt>
      <trkpt lat="44.27922" lon="6.19328">
        <ele>1606.74</ele>
        <time>2019-08-15T13:12:06Z</time>
      </trkpt>
      <trkpt lat="44.27934" lon="6.19307">
        <ele>1607.09</ele>
        <time>2019-08-15T13:12:21Z</time>
      </trkpt>
      <trkpt lat="44.27954" lon="6.19291">
        <ele>1607.65</ele>
        <time>2019-08-15T13:12:42Z</time>
      </trkpt>
      <trkpt lat="44.27967" lon="6.19286">
        <ele>1607.92</ele>
        <time>2019-08-15T13:12:53Z</time>
      </trkpt>
      <trkpt lat="44.27982" lon="6.19279">
        <ele>1607.79</ele>
        <time>2019-08-15T13:13:09Z</time>
      </trkpt>
      <trkpt lat="44.27998" lon="6.19266">
        <ele>1606.99</ele>
        <time>2019-08-15T13:13:31Z</time>
      </trkpt>
      <trkpt lat="44.2801" lon="6.19251">
        <ele>1604.94</ele>
        <time>2019-08-15T13:13:51Z</time>
      </trkpt>
      <trkpt lat="44.28025" lon="6.19228">
        <ele>1602.45</ele>
        <time>2019-08-15T13:14:11Z</time>
      </trkpt>
      <trkpt lat="44.28028" lon="6.19194">
        <ele>1600.89</ele>
        <time>2019-08-15T13:14:31Z</time>
      </trkpt>
      <trkpt lat="44.2803" lon="6.19165">
        <ele>1600.39</ele>
        <time>2019-08-15T13:14:51Z</time>
      </trkpt>
      <trkpt lat="44.28032" lon="6.19139">
        <ele>1600</ele>
        <time>2019-08-15T13:15:09Z</time>
      </trkpt>
      <trkpt lat="44.28037" lon="6.19112">
        <ele>1600.57</ele>
        <time>2019-08-15T13:15:27Z</time>
      </trkpt>
      <trkpt lat="44.28045" lon="6.19085">
        <ele>1601.22</ele>
        <time>2019-08-15T13:15:46Z</time>
      </trkpt>
      <trkpt lat="44.28049" lon="6.19068">
        <ele>1601.88</ele>
        <time>2019-08-15T13:16:04Z</time>
      </trkpt>
      <trkpt lat="44.28052" lon="6.19056">
        <ele>1602.25</ele>
        <time>2019-08-15T13:16:26Z</time>
      </trkpt>
      <trkpt lat="44.28059" lon="6.19032">
        <ele>1601.79</ele>
        <time>2019-08-15T13:16:49Z</time>
      </trkpt>
      <trkpt lat="44.28067" lon="6.19006">
        <ele>1601.5</ele>
        <time>2019-08-15T13:17:09Z</time>
      </trkpt>
      <trkpt lat="44.28068" lon="6.18974">
        <ele>1601.16</ele>
        <time>2019-08-15T13:17:31Z</time>
      </trkpt>
      <trkpt lat="44.28067" lon="6.1896">
        <ele>1600.88</ele>
        <time>2019-08-15T13:17:50Z</time>
      </trkpt>
      <trkpt lat="44.28068" lon="6.18942">
        <ele>1599.15</ele>
        <time>2019-08-15T13:18:10Z</time>
      </trkpt>
      <trkpt lat="44.28067" lon="6.18932">
        <ele>1598.69</ele>
        <time>2019-08-15T13:18:17Z</time>
      </trkpt>
      <trkpt lat="44.28066" lon="6.18922">
        <ele>1597.93</ele>
        <time>2019-08-15T13:18:23Z</time>
      </trkpt>
      <trkpt lat="44.28065" lon="6.18895">
        <ele>1596.98</ele>
        <time>2019-08-15T13:18:41Z</time>
      </trkpt>
      <trkpt lat="44.28066" lon="6.1887">
        <ele>1597.65</ele>
        <time>2019-08-15T13:18:56Z</time>
      </trkpt>
      <trkpt lat="44.28066" lon="6.18839">
        <ele>1598.19</ele>
        <time>2019-08-15T13:19:15Z</time>
      </trkpt>
      <trkpt lat="44.28067" lon="6.18818">
        <ele>1597.88</ele>
        <time>2019-08-15T13:19:31Z</time>
      </trkpt>
      <trkpt lat="44.28067" lon="6.18802">
        <ele>1596.76</ele>
        <time>2019-08-15T13:19:47Z</time>
      </trkpt>
      <trkpt lat="44.28071" lon="6.18786">
        <ele>1594.78</ele>
        <time>2019-08-15T13:20:08Z</time>
      </trkpt>
      <trkpt lat="44.28075" lon="6.18765">
        <ele>1593.2</ele>
        <time>2019-08-15T13:20:25Z</time>
      </trkpt>
      <trkpt lat="44.28076" lon="6.18745">
        <ele>1590.09</ele>
        <time>2019-08-15T13:20:44Z</time>
      </trkpt>
      <trkpt lat="44.28075" lon="6.18732">
        <ele>1587.08</ele>
        <time>2019-08-15T13:20:59Z</time>
      </trkpt>
      <trkpt lat="44.28076" lon="6.18719">
        <ele>1583.95</ele>
        <time>2019-08-15T13:21:12Z</time>
      </trkpt>
      <trkpt lat="44.28074" lon="6.18702">
        <ele>1580.77</ele>
        <time>2019-08-15T13:21:26Z</time>
      </trkpt>
      <trkpt lat="44.28074" lon="6.18679">
        <ele>1577.71</ele>
        <time>2019-08-15T13:21:46Z</time>
      </trkpt>
      <trkpt lat="44.2807" lon="6.18663">
        <ele>1575.73</ele>
        <time>2019-08-15T13:22:03Z</time>
      </trkpt>
      <trkpt lat="44.28069" lon="6.18662">
        <ele>1575.64</ele>
        <time>2019-08-15T13:22:05Z</time>
      </trkpt>
      <trkpt lat="44.28055" lon="6.18656">
        <ele>1575.5</ele>
        <time>2019-08-15T13:22:21Z</time>
      </trkpt>
      <trkpt lat="44.28035" lon="6.18656">
        <ele>1574.88</ele>
        <time>2019-08-15T13:22:37Z</time>
      </trkpt>
      <trkpt lat="44.28015" lon="6.18662">
        <ele>1574.42</ele>
        <time>2019-08-15T13:22:54Z</time>
      </trkpt>
      <trkpt lat="44.27996" lon="6.18664">
        <ele>1573.33</ele>
        <time>2019-08-15T13:23:11Z</time>
      </trkpt>
      <trkpt lat="44.27977" lon="6.18656">
        <ele>1572.62</ele>
        <time>2019-08-15T13:23:30Z</time>
      </trkpt>
      <trkpt lat="44.27973" lon="6.18653">
        <ele>1572.37</ele>
        <time>2019-08-15T13:23:34Z</time>
      </trkpt>
      <trkpt lat="44.27974" lon="6.18632">
        <ele>1572.29</ele>
        <time>2019-08-15T13:23:51Z</time>
      </trkpt>
      <trkpt lat="44.27983" lon="6.1862">
        <ele>1572.73</ele>
        <time>2019-08-15T13:24:08Z</time>
      </trkpt>
      <trkpt lat="44.2799" lon="6.18612">
        <ele>1573.61</ele>
        <time>2019-08-15T13:24:18Z</time>
      </trkpt>
      <trkpt lat="44.28004" lon="6.18595">
        <ele>1573.91</ele>
        <time>2019-08-15T13:24:35Z</time>
      </trkpt>
      <trkpt lat="44.28014" lon="6.18578">
        <ele>1574.02</ele>
        <time>2019-08-15T13:24:52Z</time>
      </trkpt>
      <trkpt lat="44.28024" lon="6.1856">
        <ele>1573.8</ele>
        <time>2019-08-15T13:25:09Z</time>
      </trkpt>
      <trkpt lat="44.28035" lon="6.18537">
        <ele>1573.81</ele>
        <time>2019-08-15T13:25:27Z</time>
      </trkpt>
      <trkpt lat="44.28047" lon="6.18514">
        <ele>1573.32</ele>
        <time>2019-08-15T13:25:44Z</time>
      </trkpt>
      <trkpt lat="44.28058" lon="6.18492">
        <ele>1573.01</ele>
        <time>2019-08-15T13:26:01Z</time>
      </trkpt>
      <trkpt lat="44.28069" lon="6.1847">
        <ele>1572.75</ele>
        <time>2019-08-15T13:26:20Z</time>
      </trkpt>
      <trkpt lat="44.28074" lon="6.1844">
        <ele>1571.32</ele>
        <time>2019-08-15T13:26:43Z</time>
      </trkpt>
      <trkpt lat="44.28078" lon="6.18406">
        <ele>1569.13</ele>
        <time>2019-08-15T13:27:07Z</time>
      </trkpt>
      <trkpt lat="44.28088" lon="6.18372">
        <ele>1568.13</ele>
        <time>2019-08-15T13:27:26Z</time>
      </trkpt>
      <trkpt lat="44.28092" lon="6.1836">
        <ele>1567.62</ele>
        <time>2019-08-15T13:27:34Z</time>
      </trkpt>
      <trkpt lat="44.28104" lon="6.18339">
        <ele>1567.29</ele>
        <time>2019-08-15T13:27:51Z</time>
      </trkpt>
      <trkpt lat="44.28119" lon="6.18324">
        <ele>1565.98</ele>
        <time>2019-08-15T13:28:09Z</time>
      </trkpt>
      <trkpt lat="44.28136" lon="6.18315">
        <ele>1564.51</ele>
        <time>2019-08-15T13:28:26Z</time>
      </trkpt>
      <trkpt lat="44.28158" lon="6.18309">
        <ele>1562.76</ele>
        <time>2019-08-15T13:28:45Z</time>
      </trkpt>
      <trkpt lat="44.28178" lon="6.18306">
        <ele>1561.5</ele>
        <time>2019-08-15T13:29:04Z</time>
      </trkpt>
      <trkpt lat="44.28194" lon="6.18304">
        <ele>1559.92</ele>
        <time>2019-08-15T13:29:20Z</time>
      </trkpt>
      <trkpt lat="44.28209" lon="6.18296">
        <ele>1558.23</ele>
        <time>2019-08-15T13:29:35Z</time>
      </trkpt>
      <trkpt lat="44.28225" lon="6.18284">
        <ele>1557.43</ele>
        <time>2019-08-15T13:29:50Z</time>
      </trkpt>
      <trkpt lat="44.28235" lon="6.18265">
        <ele>1556.5</ele>
        <time>2019-08-15T13:30:06Z</time>
      </trkpt>
      <trkpt lat="44.28241" lon="6.1824">
        <ele>1555.91</ele>
        <time>2019-08-15T13:30:24Z</time>
      </trkpt>
      <trkpt lat="44.28253" lon="6.18211">
        <ele>1555.81</ele>
        <time>2019-08-15T13:30:43Z</time>
      </trkpt>
      <trkpt lat="44.28257" lon="6.18209">
        <ele>1555.93</ele>
        <time>2019-08-15T13:30:47Z</time>
      </trkpt>
      <trkpt lat="44.28278" lon="6.18209">
        <ele>1556.76</ele>
        <time>2019-08-15T13:31:06Z</time>
      </trkpt>
      <trkpt lat="44.28294" lon="6.18206">
        <ele>1557.55</ele>
        <time>2019-08-15T13:31:23Z</time>
      </trkpt>
      <trkpt lat="44.28311" lon="6.18207">
        <ele>1557.63</ele>
        <time>2019-08-15T13:31:39Z</time>
      </trkpt>
      <trkpt lat="44.28325" lon="6.18208">
        <ele>1558.32</ele>
        <time>2019-08-15T13:31:57Z</time>
      </trkpt>
      <trkpt lat="44.28344" lon="6.18209">
        <ele>1558.94</ele>
        <time>2019-08-15T13:32:15Z</time>
      </trkpt>
      <trkpt lat="44.28362" lon="6.18215">
        <ele>1559.64</ele>
        <time>2019-08-15T13:32:32Z</time>
      </trkpt>
      <trkpt lat="44.28382" lon="6.18217">
        <ele>1560.74</ele>
        <time>2019-08-15T13:32:49Z</time>
      </trkpt>
      <trkpt lat="44.28399" lon="6.18217">
        <ele>1561.05</ele>
        <time>2019-08-15T13:33:05Z</time>
      </trkpt>
      <trkpt lat="44.28421" lon="6.18216">
        <ele>1561</ele>
        <time>2019-08-15T13:33:25Z</time>
      </trkpt>
      <trkpt lat="44.28441" lon="6.18214">
        <ele>1560.51</ele>
        <time>2019-08-15T13:33:42Z</time>
      </trkpt>
      <trkpt lat="44.28456" lon="6.18213">
        <ele>1560.25</ele>
        <time>2019-08-15T13:33:56Z</time>
      </trkpt>
      <trkpt lat="44.28475" lon="6.18212">
        <ele>1559.83</ele>
        <time>2019-08-15T13:34:13Z</time>
      </trkpt>
      <trkpt lat="44.28492" lon="6.18211">
        <ele>1559.37</ele>
        <time>2019-08-15T13:34:28Z</time>
      </trkpt>
      <trkpt lat="44.28507" lon="6.1821">
        <ele>1558.51</ele>
        <time>2019-08-15T13:34:42Z</time>
      </trkpt>
      <trkpt lat="44.28513" lon="6.1821">
        <ele>1558.03</ele>
        <time>2019-08-15T13:34:48Z</time>
      </trkpt>
      <trkpt lat="44.2853" lon="6.18206">
        <ele>1557.15</ele>
        <time>2019-08-15T13:35:06Z</time>
      </trkpt>
      <trkpt lat="44.28538" lon="6.18205">
        <ele>1556.68</ele>
        <time>2019-08-15T13:35:16Z</time>
      </trkpt>
      <trkpt lat="44.28546" lon="6.18202">
        <ele>1556.3</ele>
        <time>2019-08-15T13:35:24Z</time>
      </trkpt>
      <trkpt lat="44.28562" lon="6.18198">
        <ele>1555.21</ele>
        <time>2019-08-15T13:35:41Z</time>
      </trkpt>
      <trkpt lat="44.2857" lon="6.18199">
        <ele>1554.83</ele>
        <time>2019-08-15T13:36:01Z</time>
      </trkpt>
      <trkpt lat="44.28574" lon="6.18198">
        <ele>1554.04</ele>
        <time>2019-08-15T13:36:19Z</time>
      </trkpt>
      <trkpt lat="44.28575" lon="6.18199">
        <ele>1554.1</ele>
        <time>2019-08-15T13:36:21Z</time>
      </trkpt>
      <trkpt lat="44.28578" lon="6.182">
        <ele>1554.19</ele>
        <time>2019-08-15T13:36:24Z</time>
      </trkpt>
      <trkpt lat="44.28581" lon="6.18202">
        <ele>1554.19</ele>
        <time>2019-08-15T13:36:28Z</time>
      </trkpt>
      <trkpt lat="44.28585" lon="6.18207">
        <ele>1554.01</ele>
        <time>2019-08-15T13:36:43Z</time>
      </trkpt>
      <trkpt lat="44.28586" lon="6.18206">
        <ele>1553.78</ele>
        <time>2019-08-15T13:37:17Z</time>
      </trkpt>
      <trkpt lat="44.28587" lon="6.18204">
        <ele>1554.14</ele>
        <time>2019-08-15T13:37:45Z</time>
      </trkpt>
      <trkpt lat="44.28587" lon="6.18205">
        <ele>1553.97</ele>
        <time>2019-08-15T13:38:12Z</time>
      </trkpt>
      <trkpt lat="44.28586" lon="6.18204">
        <ele>1561.15</ele>
        <time>2019-08-15T13:38:36Z</time>
      </trkpt>
    </trkseg>
  </trk>
</gpx>